Observation data for Canadian on 08/15/2019      Previous  Date       Current Mesonet Observations  Soil Data  Daily Summary Page  Observations in Plain Language
KCA1 150500Z 07009KT 22/17 A3013 RMK A01 T02170168  RH  073%=      5-min Rain = 0
KCA1 150501Z 07009KT 22/17 A3013 RMK A01 T02180168  RH  073%=      5-min Rain = 0
KCA1 150502Z 07009KT 22/17 A3013 RMK A01 T02180168  RH  073%=      5-min Rain = 0
KCA1 150503Z 07009KT 22/17 A3013 RMK A01 T02180168  RH  073%=      5-min Rain = 0
KCA1 150504Z 07009KT 22/17 A3013 RMK A01 T02180168  RH  073%=      5-min Rain = 0
KCA1 150505Z 07009KT 22/17 A3013 RMK A01 T02180168  RH  073%=      5-min Rain = 0
KCA1 150506Z 07009KT 22/17 A3013 RMK A01 T02190168  RH  073%=      5-min Rain = 0
KCA1 150507Z 07008KT 22/17 A3013 RMK A01 T02190168  RH  073%=      5-min Rain = 0
KCA1 150508Z 07009KT 22/17 A3013 RMK A01 T02190168  RH  073%=      5-min Rain = 0
KCA1 150509Z 08008KT 22/17 A3013 RMK A01 T02190168  RH  073%=      5-min Rain = 0
KCA1 150510Z 08008KT 22/17 A3013 RMK A01 T02190168  RH  073%=      5-min Rain = 0
KCA1 150511Z 08008KT 22/17 A3012 RMK A01 T02190168  RH  073%=      5-min Rain = 0
KCA1 150512Z 08008KT 22/17 A3012 RMK A01 T02190168  RH  073%=      5-min Rain = 0
KCA1 150513Z 08009KT 22/17 A3012 RMK A01 T02190168  RH  073%=      5-min Rain = 0
KCA1 150514Z 08008KT 22/17 A3012 RMK A01 T02190168  RH  073%=      5-min Rain = 0
KCA1 150515Z 07008KT 22/17 A3012 RMK A01 T02190168  RH  073%=      5-min Rain = 0
KCA1 150516Z 07009KT 22/17 A3012 RMK A01 T02190168  RH  073%=      5-min Rain = 0
KCA1 150517Z 08009KT 22/17 A3012 RMK A01 T02190168  RH  073%=      5-min Rain = 0
KCA1 150518Z 07009KT 22/17 A3012 RMK A01 T02190168  RH  073%=      5-min Rain = 0
KCA1 150519Z 08010KT 22/17 A3012 RMK A01 T02190168  RH  072%=      5-min Rain = 0
KCA1 150520Z 08009KT 22/17 A3012 RMK A01 T02200168  RH  072%=      5-min Rain = 0
KCA1 150521Z 08009KT 22/17 A3012 RMK A01 T02210168  RH  072%=      5-min Rain = 0
KCA1 150522Z 08009KT 22/17 A3012 RMK A01 T02210168  RH  072%=      5-min Rain = 0
KCA1 150523Z 08008KT 22/17 A3012 RMK A01 T02210168  RH  072%=      5-min Rain = 0
KCA1 150524Z 08008KT 22/17 A3012 RMK A01 T02210168  RH  072%=      5-min Rain = 0
KCA1 150525Z 08007KT 22/17 A3012 RMK A01 T02210168  RH  072%=      5-min Rain = 0
KCA1 150526Z 09007KT 22/17 A3012 RMK A01 T02210168  RH  072%=      5-min Rain = 0
KCA1 150527Z 09007KT 22/17 A3012 RMK A01 T02200168  RH  072%=      5-min Rain = 0
KCA1 150528Z 09007KT 22/17 A3012 RMK A01 T02190168  RH  073%=      5-min Rain = 0
KCA1 150529Z 09007KT 22/17 A3011 RMK A01 T02180168  RH  073%=      5-min Rain = 0
KCA1 150530Z 10008KT 22/17 A3012 RMK A01 T02190169  RH  073%=      5-min Rain = 0
KCA1 150531Z 10007KT 22/17 A3011 RMK A01 T02190169  RH  073%=      5-min Rain = 0
KCA1 150532Z 10008KT 22/17 A3011 RMK A01 T02200169  RH  073%=      5-min Rain = 0
KCA1 150533Z 10008KT 22/17 A3011 RMK A01 T02210169  RH  072%=      5-min Rain = 0
KCA1 150534Z 10008KT 22/17 A3011 RMK A01 T02210169  RH  072%=      5-min Rain = 0
KCA1 150535Z 10008KT 22/17 A3011 RMK A01 T02220170  RH  072%=      5-min Rain = 0
KCA1 150536Z 10008KT 22/17 A3011 RMK A01 T02230170  RH  072%=      5-min Rain = 0
KCA1 150537Z 10008KT 22/17 A3011 RMK A01 T02230170  RH  072%=      5-min Rain = 0
KCA1 150538Z 10009KT 22/17 A3011 RMK A01 T02230170  RH  072%=      5-min Rain = 0
KCA1 150539Z 10008KT 22/17 A3011 RMK A01 T02240171  RH  072%=      5-min Rain = 0
KCA1 150540Z 10008KT 23/17 A3011 RMK A01 T02250171  RH  072%=      5-min Rain = 0
KCA1 150541Z 10007KT 23/17 A3011 RMK A01 T02250171  RH  072%=      5-min Rain = 0
KCA1 150542Z 09007KT 23/17 A3011 RMK A01 T02250171  RH  072%=      5-min Rain = 0
KCA1 150543Z 09008KT 22/17 A3011 RMK A01 T02240171  RH  072%=      5-min Rain = 0
KCA1 150544Z 09008KT 22/17 A3011 RMK A01 T02240171  RH  072%=      5-min Rain = 0
KCA1 150545Z 09008KT 22/17 A3011 RMK A01 T02230171  RH  072%=      5-min Rain = 0
KCA1 150546Z 09008KT 22/17 A3011 RMK A01 T02230171  RH  073%=      5-min Rain = 0
KCA1 150547Z 09008KT 22/17 A3011 RMK A01 T02220172  RH  073%=      5-min Rain = 0
KCA1 150548Z 09008KT 22/17 A3011 RMK A01 T02220172  RH  073%=      5-min Rain = 0
KCA1 150549Z 09008KT 22/17 A3011 RMK A01 T02210172  RH  073%=      5-min Rain = 0
KCA1 150550Z 09008KT 22/17 A3011 RMK A01 T02210172  RH  074%=      5-min Rain = 0
KCA1 150551Z 09008KT 22/17 A3011 RMK A01 T02210172  RH  074%=      5-min Rain = 0
KCA1 150552Z 09008KT 22/17 A3011 RMK A01 T02200172  RH  074%=      5-min Rain = 0
KCA1 150553Z 09008KT 22/17 A3011 RMK A01 T02200172  RH  074%=      5-min Rain = 0
KCA1 150554Z 09009KT 22/17 A3011 RMK A01 T02200172  RH  074%=      5-min Rain = 0
KCA1 150555Z 09008KT 22/17 A3011 RMK A01 T02200172  RH  074%=      5-min Rain = 0
KCA1 150556Z 09009KT 22/17 A3011 RMK A01 T02190172  RH  075%=      5-min Rain = 0
KCA1 150557Z 09009KT 22/17 A3011 RMK A01 T02190173  RH  075%=      5-min Rain = 0
KCA1 150558Z 09009KT 22/17 A3011 RMK A01 T02190173  RH  075%=      5-min Rain = 0
KCA1 150559Z 09009KT 22/17 A3011 RMK A01 T02190172  RH  075%=      5-min Rain = 0
KCA1 150600Z 09009KT 22/17 A3011 RMK A01 T02190172  RH  075%=      5-min Rain = 0
KCA1 150601Z 09009KT 22/17 A3011 RMK A01 T02190173  RH  075%=      5-min Rain = 0
KCA1 150602Z 09009KT 22/17 A3011 RMK A01 T02190173  RH  075%=      5-min Rain = 0
KCA1 150603Z 09009KT 22/17 A3011 RMK A01 T02190173  RH  075%=      5-min Rain = 0
KCA1 150604Z 09009KT 22/17 A3011 RMK A01 T02190174  RH  075%=      5-min Rain = 0
KCA1 150605Z 09008KT 22/17 A301 RMK A01 T02190174  RH  075%=      5-min Rain = 0
KCA1 150606Z 09009KT 22/17 A301 RMK A01 T02190173  RH  075%=      5-min Rain = 0
KCA1 150607Z 09009KT 22/17 A301 RMK A01 T02190173  RH  075%=      5-min Rain = 0
KCA1 150608Z 09009KT 22/17 A301 RMK A01 T02190173  RH  075%=      5-min Rain = 0
KCA1 150609Z 09009KT 22/17 A301 RMK A01 T02190174  RH  075%=      5-min Rain = 0
KCA1 150610Z 09009KT 22/17 A3011 RMK A01 T02190173  RH  075%=      5-min Rain = 0
KCA1 150611Z 09009KT 22/17 A3011 RMK A01 T02190174  RH  075%=      5-min Rain = 0
KCA1 150612Z 09008KT 22/17 A3011 RMK A01 T02190174  RH  075%=      5-min Rain = 0
KCA1 150613Z 09008KT 22/17 A3011 RMK A01 T02190174  RH  076%=      5-min Rain = 0
KCA1 150614Z 09008KT 22/17 A3011 RMK A01 T02190174  RH  075%=      5-min Rain = 0
KCA1 150615Z 09008KT 22/17 A3011 RMK A01 T02190174  RH  075%=      5-min Rain = 0
KCA1 150616Z 09008KT 22/17 A3011 RMK A01 T02190174  RH  075%=      5-min Rain = 0
KCA1 150617Z 09008KT 22/17 A3011 RMK A01 T02190174  RH  075%=      5-min Rain = 0
KCA1 150618Z 09008KT 22/17 A3011 RMK A01 T02190174  RH  076%=      5-min Rain = 0
KCA1 150619Z 09008KT 22/18 A3011 RMK A01 T02190175  RH  076%=      5-min Rain = 0
KCA1 150620Z 09008KT 22/17 A3011 RMK A01 T02190174  RH  076%=      5-min Rain = 0
KCA1 150621Z 10008KT 22/17 A3011 RMK A01 T02190174  RH  076%=      5-min Rain = 0
KCA1 150622Z 09009KT 22/17 A3011 RMK A01 T02190174  RH  076%=      5-min Rain = 0
KCA1 150623Z 10008KT 22/17 A3011 RMK A01 T02190174  RH  076%=      5-min Rain = 0
KCA1 150624Z 10008KT 22/17 A3011 RMK A01 T02200174  RH  075%=      5-min Rain = 0
KCA1 150625Z 10007KT 22/17 A3011 RMK A01 T02190174  RH  075%=      5-min Rain = 0
KCA1 150626Z 10008KT 22/17 A3011 RMK A01 T02200174  RH  075%=      5-min Rain = 0
KCA1 150627Z 10008KT 22/17 A3011 RMK A01 T02200174  RH  075%=      5-min Rain = 0
KCA1 150628Z 10008KT 22/17 A3011 RMK A01 T02200174  RH  075%=      5-min Rain = 0
KCA1 150629Z 09008KT 22/17 A3011 RMK A01 T02200174  RH  075%=      5-min Rain = 0
KCA1 150630Z 10008KT 22/17 A3011 RMK A01 T02200174  RH  076%=      5-min Rain = 0
KCA1 150631Z 09008KT 22/17 A3011 RMK A01 T02190174  RH  076%=      5-min Rain = 0
KCA1 150632Z 10008KT 22/18 A3011 RMK A01 T02190175  RH  076%=      5-min Rain = 0
KCA1 150633Z 09008KT 22/17 A3011 RMK A01 T02190174  RH  076%=      5-min Rain = 0
KCA1 150634Z 09008KT 22/18 A3011 RMK A01 T02190175  RH  076%=      5-min Rain = 0
KCA1 150635Z 09008KT 22/17 A3011 RMK A01 T02180174  RH  076%=      5-min Rain = 0
KCA1 150636Z 09008KT 22/18 A3011 RMK A01 T02180175  RH  076%=      5-min Rain = 0
KCA1 150637Z 09008KT 22/18 A3011 RMK A01 T02180175  RH  076%=      5-min Rain = 0
KCA1 150638Z 09008KT 22/18 A3011 RMK A01 T02180175  RH  076%=      5-min Rain = 0
KCA1 150639Z 09008KT 22/18 A3011 RMK A01 T02180175  RH  076%=      5-min Rain = 0
KCA1 150640Z 09009KT 22/17 A3011 RMK A01 T02170174  RH  077%=      5-min Rain = 0
KCA1 150641Z 09008KT 22/18 A3011 RMK A01 T02170175  RH  077%=      5-min Rain = 0
KCA1 150642Z 09008KT 22/18 A3011 RMK A01 T02170175  RH  077%=      5-min Rain = 0
KCA1 150643Z 09009KT 22/18 A3011 RMK A01 T02160175  RH  077%=      5-min Rain = 0
KCA1 150644Z 09008KT 22/18 A3011 RMK A01 T02160175  RH  077%=      5-min Rain = 0
KCA1 150645Z 09008KT 22/18 A3011 RMK A01 T02160175  RH  077%=      5-min Rain = 0
KCA1 150646Z 09008KT 22/18 A3011 RMK A01 T02160175  RH  078%=      5-min Rain = 0
KCA1 150647Z 09008KT 22/18 A3011 RMK A01 T02160175  RH  078%=      5-min Rain = 0
KCA1 150648Z 09008KT 22/18 A3011 RMK A01 T02150175  RH  078%=      5-min Rain = 0
KCA1 150649Z 09008KT 22/18 A301 RMK A01 T02150175  RH  078%=      5-min Rain = 0
KCA1 150650Z 08008KT 22/18 A301 RMK A01 T02150175  RH  078%=      5-min Rain = 0
KCA1 150651Z 09008KT 22/18 A301 RMK A01 T02150175  RH  078%=      5-min Rain = 0
KCA1 150652Z 09008KT 22/18 A301 RMK A01 T02150175  RH  078%=      5-min Rain = 0
KCA1 150653Z 09008KT 21/18 A301 RMK A01 T02140175  RH  078%=      5-min Rain = 0
KCA1 150654Z 09008KT 22/18 A301 RMK A01 T02150176  RH  078%=      5-min Rain = 0
KCA1 150655Z 09008KT 22/18 A301 RMK A01 T02150176  RH  078%=      5-min Rain = 0
KCA1 150656Z 09008KT 22/18 A301 RMK A01 T02150176  RH  078%=      5-min Rain = 0
KCA1 150657Z 09007KT 22/18 A301 RMK A01 T02150175  RH  078%=      5-min Rain = 0
KCA1 150658Z 09008KT 22/18 A301 RMK A01 T02150176  RH  078%=      5-min Rain = 0
KCA1 150659Z 09008KT 21/18 A3011 RMK A01 T02140175  RH  078%=      5-min Rain = 0
KCA1 150700Z 09007KT 22/18 A3011 RMK A01 T02150176  RH  078%=      5-min Rain = 0
KCA1 150701Z 09008KT 22/18 A3011 RMK A01 T02150176  RH  078%=      5-min Rain = 0
KCA1 150702Z 09007KT 22/18 A3011 RMK A01 T02150176  RH  078%=      5-min Rain = 0
KCA1 150703Z 09008KT 22/18 A3011 RMK A01 T02150176  RH  078%=      5-min Rain = 0
KCA1 150704Z 09008KT 22/18 A3011 RMK A01 T02150176  RH  079%=      5-min Rain = 0
KCA1 150705Z 09008KT 22/18 A3011 RMK A01 T02150176  RH  079%=      5-min Rain = 0
KCA1 150706Z 09008KT 22/18 A3011 RMK A01 T02150176  RH  079%=      5-min Rain = 0
KCA1 150707Z 09008KT 21/18 A3011 RMK A01 T02140176  RH  079%=      5-min Rain = 0
KCA1 150708Z 09009KT 21/18 A3011 RMK A01 T02140177  RH  079%=      5-min Rain = 0
KCA1 150709Z 09009KT 21/18 A3011 RMK A01 T02140176  RH  079%=      5-min Rain = 0
KCA1 150710Z 09009KT 21/18 A3011 RMK A01 T02140176  RH  079%=      5-min Rain = 0
KCA1 150711Z 09009KT 21/18 A3011 RMK A01 T02140176  RH  079%=      5-min Rain = 0
KCA1 150712Z 09009KT 21/18 A3011 RMK A01 T02140176  RH  079%=      5-min Rain = 0
KCA1 150713Z 09008KT 21/18 A3011 RMK A01 T02140176  RH  079%=      5-min Rain = 0
KCA1 150714Z 09008KT 21/18 A3011 RMK A01 T02140176  RH  079%=      5-min Rain = 0
KCA1 150715Z 09009KT 21/18 A3011 RMK A01 T02140177  RH  079%=      5-min Rain = 0
KCA1 150716Z 09008KT 21/18 A3011 RMK A01 T02140177  RH  079%=      5-min Rain = 0
KCA1 150717Z 09008KT 21/18 A3011 RMK A01 T02130177  RH  080%=      5-min Rain = 0
KCA1 150718Z 09008KT 21/18 A3011 RMK A01 T02130177  RH  080%=      5-min Rain = 0
KCA1 150719Z 09008KT 21/18 A3011 RMK A01 T02130177  RH  080%=      5-min Rain = 0
KCA1 150720Z 09008KT 21/18 A3011 RMK A01 T02130177  RH  080%=      5-min Rain = 0
KCA1 150721Z 09008KT 21/18 A3011 RMK A01 T02130177  RH  080%=      5-min Rain = 0
KCA1 150722Z 09008KT 21/18 A3011 RMK A01 T02130177  RH  080%=      5-min Rain = 0
KCA1 150723Z 09007KT 21/18 A3011 RMK A01 T02130177  RH  080%=      5-min Rain = 0
KCA1 150724Z 09008KT 21/18 A3011 RMK A01 T02120177  RH  080%=      5-min Rain = 0
KCA1 150725Z 09008KT 21/18 A3011 RMK A01 T02120177  RH  080%=      5-min Rain = 0
KCA1 150726Z 09008KT 21/18 A3011 RMK A01 T02130177  RH  080%=      5-min Rain = 0
KCA1 150727Z 09007KT 21/18 A3011 RMK A01 T02120177  RH  080%=      5-min Rain = 0
KCA1 150728Z 09007KT 21/18 A3011 RMK A01 T02110177  RH  081%=      5-min Rain = 0
KCA1 150729Z 09008KT 21/18 A3011 RMK A01 T02110177  RH  081%=      5-min Rain = 0
KCA1 150730Z 09008KT 21/18 A3011 RMK A01 T02110177  RH  081%=      5-min Rain = 0
KCA1 150731Z 09008KT 21/18 A3011 RMK A01 T02110177  RH  081%=      5-min Rain = 0
KCA1 150732Z 09008KT 21/18 A3011 RMK A01 T02100177  RH  081%=      5-min Rain = 0
KCA1 150733Z 09008KT 21/18 A3011 RMK A01 T02100177  RH  081%=      5-min Rain = 0
KCA1 150734Z 09008KT 21/18 A3011 RMK A01 T02100177  RH  081%=      5-min Rain = 0
KCA1 150735Z 09008KT 21/18 A3011 RMK A01 T02100177  RH  081%=      5-min Rain = 0
KCA1 150736Z 09008KT 21/18 A3011 RMK A01 T02090177  RH  082%=      5-min Rain = 0
KCA1 150737Z 09008KT 21/18 A3011 RMK A01 T02090177  RH  082%=      5-min Rain = 0
KCA1 150738Z 09008KT 21/18 A3011 RMK A01 T02090177  RH  082%=      5-min Rain = 0
KCA1 150739Z 09008KT 21/18 A3011 RMK A01 T02090177  RH  082%=      5-min Rain = 0
KCA1 150740Z 09008KT 21/18 A3011 RMK A01 T02090177  RH  082%=      5-min Rain = 0
KCA1 150741Z 09007KT 21/18 A3011 RMK A01 T02090177  RH  082%=      5-min Rain = 0
KCA1 150742Z 09007KT 21/18 A3011 RMK A01 T02090177  RH  082%=      5-min Rain = 0
KCA1 150743Z 09007KT 21/18 A3011 RMK A01 T02090177  RH  082%=      5-min Rain = 0
KCA1 150744Z 09007KT 21/18 A3011 RMK A01 T02080177  RH  082%=      5-min Rain = 0
KCA1 150745Z 09008KT 21/18 A3011 RMK A01 T02080177  RH  082%=      5-min Rain = 0
KCA1 150746Z 08008KT 21/18 A3011 RMK A01 T02080177  RH  082%=      5-min Rain = 0
KCA1 150747Z 08008KT 21/18 A3011 RMK A01 T02080177  RH  082%=      5-min Rain = 0
KCA1 150748Z 08008KT 21/18 A3011 RMK A01 T02080177  RH  082%=      5-min Rain = 0
KCA1 150749Z 08008KT 21/18 A3011 RMK A01 T02080177  RH  082%=      5-min Rain = 0
KCA1 150750Z 08008KT 21/18 A3011 RMK A01 T02080177  RH  082%=      5-min Rain = 0
KCA1 150751Z 08008KT 21/18 A3011 RMK A01 T02080177  RH  082%=      5-min Rain = 0
KCA1 150752Z 08007KT 21/18 A3011 RMK A01 T02080177  RH  082%=      5-min Rain = 0
KCA1 150753Z 08007KT 21/18 A3011 RMK A01 T02080177  RH  082%=      5-min Rain = 0
KCA1 150754Z 08007KT 21/18 A3011 RMK A01 T02090177  RH  082%=      5-min Rain = 0
KCA1 150755Z 08007KT 21/18 A3011 RMK A01 T02090177  RH  082%=      5-min Rain = 0
KCA1 150756Z 08007KT 21/18 A3011 RMK A01 T02090177  RH  082%=      5-min Rain = 0
KCA1 150757Z 08007KT 21/18 A3011 RMK A01 T02090178  RH  082%=      5-min Rain = 0
KCA1 150758Z 08007KT 21/18 A3011 RMK A01 T02090177  RH  082%=      5-min Rain = 0
KCA1 150759Z 08008KT 21/18 A3011 RMK A01 T02100177  RH  082%=      5-min Rain = 0
KCA1 150800Z 07008KT 21/18 A3011 RMK A01 T02100177  RH  082%=      5-min Rain = 0
KCA1 150801Z 07008KT 21/18 A3011 RMK A01 T02100178  RH  082%=      5-min Rain = 0
KCA1 150802Z 07008KT 21/18 A3011 RMK A01 T02110178  RH  082%=      5-min Rain = 0
KCA1 150803Z 07008KT 21/18 A3011 RMK A01 T02110178  RH  081%=      5-min Rain = 0
KCA1 150804Z 07007KT 21/18 A3011 RMK A01 T02110178  RH  081%=      5-min Rain = 0
KCA1 150805Z 07007KT 21/18 A3011 RMK A01 T02110178  RH  081%=      5-min Rain = 0
KCA1 150806Z 07007KT 21/18 A3011 RMK A01 T02110178  RH  081%=      5-min Rain = 0
KCA1 150807Z 07007KT 21/18 A3011 RMK A01 T02100178  RH  082%=      5-min Rain = 0
KCA1 150808Z 07007KT 21/18 A3011 RMK A01 T02080177  RH  082%=      5-min Rain = 0
KCA1 150809Z 07007KT 21/18 A3011 RMK A01 T02080178  RH  083%=      5-min Rain = 0
KCA1 150810Z 07007KT 21/18 A3011 RMK A01 T02070177  RH  083%=      5-min Rain = 0
KCA1 150811Z 07007KT 21/18 A3011 RMK A01 T02060177  RH  084%=      5-min Rain = 0
KCA1 150812Z 07007KT 21/18 A3011 RMK A01 T02050177  RH  084%=      5-min Rain = 0
KCA1 150813Z 08007KT 21/18 A3011 RMK A01 T02050177  RH  084%=      5-min Rain = 0
KCA1 150814Z 08007KT 21/18 A3011 RMK A01 T02050178  RH  084%=      5-min Rain = 0
KCA1 150815Z 09007KT 20/18 A3011 RMK A01 T02040177  RH  085%=      5-min Rain = 0
KCA1 150816Z 09007KT 20/18 A3011 RMK A01 T02040177  RH  084%=      5-min Rain = 0
KCA1 150817Z 09007KT 21/18 A301 RMK A01 T02050178  RH  084%=      5-min Rain = 0
KCA1 150818Z 09007KT 21/18 A301 RMK A01 T02060178  RH  084%=      5-min Rain = 0
KCA1 150819Z 10007KT 21/18 A301 RMK A01 T02070178  RH  084%=      5-min Rain = 0
KCA1 150820Z 10007KT 21/18 A301 RMK A01 T02070178  RH  084%=      5-min Rain = 0
KCA1 150821Z 10006KT 21/18 A301 RMK A01 T02070178  RH  083%=      5-min Rain = 0
KCA1 150822Z 11007KT 21/18 A301 RMK A01 T02070178  RH  083%=      5-min Rain = 0
KCA1 150823Z 11006KT 21/18 A301 RMK A01 T02070178  RH  084%=      5-min Rain = 0
KCA1 150824Z 12005KT 21/18 A301 RMK A01 T02070178  RH  084%=      5-min Rain = 0
KCA1 150825Z 15004KT 21/18 A301 RMK A01 T02070178  RH  084%=      5-min Rain = 0
KCA1 150826Z 15003KT 21/18 A301 RMK A01 T02060178  RH  084%=      5-min Rain = 0
KCA1 150827Z 16003KT 20/18 A301 RMK A01 T02040177  RH  085%=      5-min Rain = 0
KCA1 150828Z 15003KT 20/18 A301 RMK A01 T02030177  RH  085%=      5-min Rain = 0
KCA1 150829Z 15003KT 20/18 A301 RMK A01 T02020177  RH  085%=      5-min Rain = 0
KCA1 150830Z 16003KT 20/18 A301 RMK A01 T02010177  RH  086%=      5-min Rain = 0
KCA1 150831Z 17003KT 20/18 A301 RMK A01 T02010177  RH  086%=      5-min Rain = 0
KCA1 150832Z 17002KT 20/18 A301 RMK A01 T02000176  RH  086%=      5-min Rain = 0
KCA1 150833Z 16002KT 20/18 A301 RMK A01 T02000177  RH  086%=      5-min Rain = 0
KCA1 150834Z 14002KT 20/18 A301 RMK A01 T01990176  RH  087%=      5-min Rain = 0
KCA1 150835Z 14002KT 20/18 A3009 RMK A01 T01990176  RH  087%=      5-min Rain = 0
KCA1 150836Z 14002KT 20/18 A3009 RMK A01 T01980176  RH  087%=      5-min Rain = 0
KCA1 150837Z 13002KT 20/18 A3009 RMK A01 T01980176  RH  087%=      5-min Rain = 0
KCA1 150838Z 12002KT 20/18 A3009 RMK A01 T01980176  RH  087%=      5-min Rain = 0
KCA1 150839Z 11002KT 20/18 A3009 RMK A01 T01980176  RH  087%=      5-min Rain = 0
KCA1 150840Z 10003KT 20/18 A3009 RMK A01 T01970176  RH  088%=      5-min Rain = 0
KCA1 150841Z 10004KT 20/18 A3009 RMK A01 T01970176  RH  088%=      5-min Rain = 0
KCA1 150842Z 10004KT 20/18 A3009 RMK A01 T01970176  RH  088%=      5-min Rain = 0
KCA1 150843Z 10004KT 20/18 A3009 RMK A01 T01970176  RH  088%=      5-min Rain = 0
KCA1 150844Z 10004KT 20/18 A3009 RMK A01 T01970176  RH  088%=      5-min Rain = 0
KCA1 150845Z 10004KT 20/18 A3009 RMK A01 T01970176  RH  088%=      5-min Rain = 0
KCA1 150846Z 10004KT 20/18 A3009 RMK A01 T01970176  RH  088%=      5-min Rain = 0
KCA1 150847Z 10004KT 20/18 A3009 RMK A01 T01980177  RH  087%=      5-min Rain = 0
KCA1 150848Z 11004KT 20/18 A3009 RMK A01 T01980176  RH  087%=      5-min Rain = 0
KCA1 150849Z 11004KT 20/18 A3009 RMK A01 T01980176  RH  087%=      5-min Rain = 0
KCA1 150850Z 11004KT 20/18 A3009 RMK A01 T01980176  RH  087%=      5-min Rain = 0
KCA1 150851Z 11003KT 20/18 A301 RMK A01 T01980176  RH  087%=      5-min Rain = 0
KCA1 150852Z 11003KT 20/18 A301 RMK A01 T01980177  RH  087%=      5-min Rain = 0
KCA1 150853Z 10003KT 20/18 A301 RMK A01 T01980176  RH  087%=      5-min Rain = 0
KCA1 150854Z 09003KT 20/18 A301 RMK A01 T01980176  RH  087%=      5-min Rain = 0
KCA1 150855Z 07003KT 20/18 A301 RMK A01 T01980175  RH  087%=      5-min Rain = 0
KCA1 150856Z 06003KT 20/18 A301 RMK A01 T01960175  RH  087%=      5-min Rain = 0
KCA1 150857Z 05003KT 20/18 A301 RMK A01 T01950175  RH  088%=      5-min Rain = 0
KCA1 150858Z 04003KT 20/18 A301 RMK A01 T01950175  RH  089%=      5-min Rain = 0
KCA1 150859Z 04003KT 19/18 A301 RMK A01 T01940175  RH  089%=      5-min Rain = 0
KCA1 150900Z 05003KT 19/18 A301 RMK A01 T01940176  RH  089%=      5-min Rain = 0
KCA1 150901Z 05003KT 19/18 A301 RMK A01 T01940176  RH  089%=      5-min Rain = 0
KCA1 150902Z 05003KT 19/18 A301 RMK A01 T01940176  RH  090%=      5-min Rain = 0
KCA1 150903Z 05003KT 19/18 A301 RMK A01 T01940176  RH  089%=      5-min Rain = 0
KCA1 150904Z 04003KT 19/18 A301 RMK A01 T01940176  RH  089%=      5-min Rain = 0
KCA1 150905Z 04003KT 19/18 A301 RMK A01 T01940176  RH  089%=      5-min Rain = 0
KCA1 150906Z 03003KT 19/18 A301 RMK A01 T01940176  RH  089%=      5-min Rain = 0
KCA1 150907Z 03003KT 19/18 A301 RMK A01 T01940176  RH  089%=      5-min Rain = 0
KCA1 150908Z 03003KT 19/18 A301 RMK A01 T01940177  RH  089%=      5-min Rain = 0
KCA1 150909Z 03003KT 19/18 A301 RMK A01 T01940176  RH  089%=      5-min Rain = 0
KCA1 150910Z 03004KT 19/18 A301 RMK A01 T01940177  RH  090%=      5-min Rain = 0
KCA1 150911Z 03004KT 19/18 A301 RMK A01 T01940177  RH  090%=      5-min Rain = 0
KCA1 150912Z 03004KT 19/18 A301 RMK A01 T01940177  RH  090%=      5-min Rain = 0
KCA1 150913Z 04004KT 19/18 A301 RMK A01 T01940177  RH  090%=      5-min Rain = 0
KCA1 150914Z 03004KT 19/18 A301 RMK A01 T01940178  RH  090%=      5-min Rain = 0
KCA1 150915Z 04004KT 19/18 A301 RMK A01 T01940178  RH  091%=      5-min Rain = 0
KCA1 150916Z 03005KT 19/18 A301 RMK A01 T01940178  RH  091%=      5-min Rain = 0
KCA1 150917Z 03005KT 19/18 A3011 RMK A01 T01940179  RH  091%=      5-min Rain = 0
KCA1 150918Z 04005KT 19/18 A3011 RMK A01 T01940179  RH  091%=      5-min Rain = 0
KCA1 150919Z 04004KT 20/18 A3011 RMK A01 T01950179  RH  091%=      5-min Rain = 0
KCA1 150920Z 04005KT 20/18 A3011 RMK A01 T01950179  RH  090%=      5-min Rain = 0
KCA1 150921Z 04004KT 20/18 A3011 RMK A01 T01950179  RH  090%=      5-min Rain = 0
KCA1 150922Z 03004KT 20/18 A3011 RMK A01 T01950179  RH  090%=      5-min Rain = 0
KCA1 150923Z 03005KT 20/18 A3011 RMK A01 T01960179  RH  090%=      5-min Rain = 0
KCA1 150924Z 03004KT 20/18 A3011 RMK A01 T01960179  RH  090%=      5-min Rain = 0
KCA1 150925Z 04003KT 20/18 A3011 RMK A01 T01960179  RH  090%=      5-min Rain = 0
KCA1 150926Z 04003KT 20/18 A3011 RMK A01 T01970180  RH  090%=      5-min Rain = 0
KCA1 150927Z 04002KT 20/18 A301 RMK A01 T01970179  RH  090%=      5-min Rain = 0
KCA1 150928Z 04001KT 20/18 A301 RMK A01 T01970180  RH  090%=      5-min Rain = 0
KCA1 150929Z 06001KT 20/18 A301 RMK A01 T01970180  RH  090%=      5-min Rain = 0
KCA1 150930Z 12001KT 20/18 A301 RMK A01 T01980180  RH  089%=      5-min Rain = 0
KCA1 150931Z 14001KT 20/18 A301 RMK A01 T01980180  RH  089%=      5-min Rain = 0
KCA1 150932Z 14001KT 20/18 A301 RMK A01 T01980180  RH  089%=      5-min Rain = 0
KCA1 150933Z 15002KT 20/18 A301 RMK A01 T01990180  RH  089%=      5-min Rain = 0
KCA1 150934Z 15001KT 20/18 A301 RMK A01 T02000180  RH  088%=      5-min Rain = 0
KCA1 150935Z 13002KT 20/18 A301 RMK A01 T02020181  RH  088%=      5-min Rain = 0
KCA1 150936Z 13002KT 20/18 A301 RMK A01 T02030181  RH  087%=      5-min Rain = 0
KCA1 150937Z 14001KT 20/18 A301 RMK A01 T02030180  RH  087%=      5-min Rain = 0
KCA1 150938Z 15001KT 20/18 A301 RMK A01 T02040180  RH  086%=      5-min Rain = 0
KCA1 150939Z 16001KT 21/18 A301 RMK A01 T02050180  RH  086%=      5-min Rain = 0
KCA1 150940Z 17001KT 21/18 A301 RMK A01 T02050180  RH  086%=      5-min Rain = 0
KCA1 150941Z 17001KT 21/18 A301 RMK A01 T02050180  RH  085%=      5-min Rain = 0
KCA1 150942Z 00000KT 21/18 A301 RMK A01 T02050181  RH  086%=      5-min Rain = 0
KCA1 150943Z 00000KT 21/18 A301 RMK A01 T02050182  RH  086%=      5-min Rain = 0
KCA1 150944Z 12000KT 21/18 A301 RMK A01 T02050181  RH  086%=      5-min Rain = 0
KCA1 150945Z 12001KT 21/18 A301 RMK A01 T02050181  RH  086%=      5-min Rain = 0
KCA1 150946Z 11002KT 21/18 A301 RMK A01 T02050181  RH  086%=      5-min Rain = 0
KCA1 150947Z 11002KT 21/18 A301 RMK A01 T02050181  RH  086%=      5-min Rain = 0
KCA1 150948Z 12003KT 21/18 A3009 RMK A01 T02050182  RH  087%=      5-min Rain = 0
KCA1 150949Z 12004KT 21/18 A3009 RMK A01 T02050182  RH  087%=      5-min Rain = 0
KCA1 150950Z 13004KT 20/18 A3009 RMK A01 T02040181  RH  087%=      5-min Rain = 0
KCA1 150951Z 13005KT 20/18 A3009 RMK A01 T02040181  RH  086%=      5-min Rain = 0
KCA1 150952Z 13004KT 21/18 A3009 RMK A01 T02050181  RH  086%=      5-min Rain = 0
KCA1 150953Z 13004KT 21/18 A3009 RMK A01 T02050181  RH  086%=      5-min Rain = 0
KCA1 150954Z 14004KT 21/18 A3009 RMK A01 T02050181  RH  086%=      5-min Rain = 0
KCA1 150955Z 14004KT 21/18 A3008 RMK A01 T02060180  RH  086%=      5-min Rain = 0
KCA1 150956Z 14005KT 21/18 A3008 RMK A01 T02060180  RH  085%=      5-min Rain = 0
KCA1 150957Z 15005KT 21/18 A3008 RMK A01 T02060180  RH  085%=      5-min Rain = 0
KCA1 150958Z 15005KT 21/18 A3008 RMK A01 T02070180  RH  085%=      5-min Rain = 0
KCA1 150959Z 15006KT 21/18 A3008 RMK A01 T02070180  RH  085%=      5-min Rain = 0
KCA1 151000Z 16007KT 21/18 A3008 RMK A01 T02060180  RH  085%=      5-min Rain = 0
KCA1 151001Z 16007KT 21/18 A3008 RMK A01 T02060181  RH  085%=      5-min Rain = 0
KCA1 151002Z 16007KT 21/18 A3008 RMK A01 T02060181  RH  085%=      5-min Rain = 0
KCA1 151003Z 16007KT 21/18 A3008 RMK A01 T02060181  RH  085%=      5-min Rain = 0
KCA1 151004Z 16007KT 21/18 A3008 RMK A01 T02060181  RH  085%=      5-min Rain = 0
KCA1 151005Z 16006KT 21/18 A3008 RMK A01 T02060181  RH  085%=      5-min Rain = 0
KCA1 151006Z 17005KT 21/18 A3008 RMK A01 T02060181  RH  085%=      5-min Rain = 0
KCA1 151007Z 17005KT 21/18 A3008 RMK A01 T02060181  RH  085%=      5-min Rain = 0
KCA1 151008Z 18004KT 21/18 A3008 RMK A01 T02060181  RH  085%=      5-min Rain = 0
KCA1 151009Z 19004KT 21/18 A3008 RMK A01 T02060181  RH  085%=      5-min Rain = 0
KCA1 151010Z 19003KT 21/18 A3009 RMK A01 T02050181  RH  086%=      5-min Rain = 0
KCA1 151011Z 21003KT 20/18 A3009 RMK A01 T02030180  RH  087%=      5-min Rain = 0
KCA1 151012Z 25002KT 20/18 A3009 RMK A01 T02010179  RH  087%=      5-min Rain = 0
KCA1 151013Z 27004KT 20/18 A3009 RMK A01 T02000179  RH  088%=      5-min Rain = 0
KCA1 151014Z 28005KT 20/18 A3009 RMK A01 T01970178  RH  089%=      5-min Rain = 0
KCA1 151015Z 28005KT 20/18 A3009 RMK A01 T01950178  RH  090%=      5-min Rain = 0
KCA1 151016Z 27005KT 19/18 A3009 RMK A01 T01930178  RH  091%=      5-min Rain = 0
KCA1 151017Z 27004KT 19/18 A3009 RMK A01 T01920178  RH  092%=      5-min Rain = 0
KCA1 151018Z 26003KT 19/18 A3009 RMK A01 T01920179  RH  092%=      5-min Rain = 0
KCA1 151019Z 27003KT 19/18 A3009 RMK A01 T01920179  RH  092%=      5-min Rain = 0
KCA1 151020Z 27002KT 19/18 A3009 RMK A01 T01910179  RH  092%=      5-min Rain = 0
KCA1 151021Z 26001KT 19/18 A3009 RMK A01 T01920179  RH  092%=      5-min Rain = 0
KCA1 151022Z 26000KT 19/18 A3009 RMK A01 T01910179  RH  092%=      5-min Rain = 0
KCA1 151023Z 19001KT 19/18 A3009 RMK A01 T01910179  RH  092%=      5-min Rain = 0
KCA1 151024Z 17002KT 19/18 A3009 RMK A01 T01920179  RH  092%=      5-min Rain = 0
KCA1 151025Z 15002KT 19/18 A3009 RMK A01 T01920179  RH  092%=      5-min Rain = 0
KCA1 151026Z 16001KT 19/18 A3009 RMK A01 T01930179  RH  092%=      5-min Rain = 0
KCA1 151027Z 16001KT 19/18 A3009 RMK A01 T01930179  RH  092%=      5-min Rain = 0
KCA1 151028Z 15001KT 19/18 A3009 RMK A01 T01930179  RH  092%=      5-min Rain = 0
KCA1 151029Z 13002KT 19/18 A3009 RMK A01 T01930179  RH  092%=      5-min Rain = 0
KCA1 151030Z 11002KT 19/18 A3009 RMK A01 T01920179  RH  092%=      5-min Rain = 0
KCA1 151031Z 09002KT 19/18 A3009 RMK A01 T01920180  RH  092%=      5-min Rain = 0
KCA1 151032Z 10002KT 19/18 A3009 RMK A01 T01920180  RH  092%=      5-min Rain = 0
KCA1 151033Z 08002KT 19/18 A301 RMK A01 T01920180  RH  093%=      5-min Rain = 0
KCA1 151034Z 07002KT 19/18 A301 RMK A01 T01920180  RH  093%=      5-min Rain = 0
KCA1 151035Z 06003KT 19/18 A3009 RMK A01 T01920180  RH  093%=      5-min Rain = 0
KCA1 151036Z 08003KT 19/18 A3009 RMK A01 T01920180  RH  093%=      5-min Rain = 0
KCA1 151037Z 08003KT 19/18 A3009 RMK A01 T01920180  RH  093%=      5-min Rain = 0
KCA1 151038Z 08003KT 19/18 A3009 RMK A01 T01930180  RH  092%=      5-min Rain = 0
KCA1 151039Z 08003KT 19/18 A3009 RMK A01 T01930181  RH  092%=      5-min Rain = 0
KCA1 151040Z 08004KT 19/18 A3009 RMK A01 T01940181  RH  092%=      5-min Rain = 0
KCA1 151041Z 07004KT 19/18 A3009 RMK A01 T01940181  RH  092%=      5-min Rain = 0
KCA1 151042Z 07003KT 19/18 A3009 RMK A01 T01940181  RH  092%=      5-min Rain = 0
KCA1 151043Z 08002KT 20/18 A3009 RMK A01 T01950181  RH  092%=      5-min Rain = 0
KCA1 151044Z 09002KT 19/18 A3009 RMK A01 T01940181  RH  092%=      5-min Rain = 0
KCA1 151045Z 12001KT 19/18 A3009 RMK A01 T01940181  RH  092%=      5-min Rain = 0
KCA1 151046Z 15001KT 20/18 A3009 RMK A01 T01950181  RH  092%=      5-min Rain = 0
KCA1 151047Z 18001KT 20/18 A3009 RMK A01 T01950181  RH  092%=      5-min Rain = 0
KCA1 151048Z 26001KT 20/18 A3009 RMK A01 T01950181  RH  092%=      5-min Rain = 0
KCA1 151049Z 23001KT 20/18 A3009 RMK A01 T01950181  RH  092%=      5-min Rain = 0
KCA1 151050Z 24001KT 20/18 A3009 RMK A01 T01950181  RH  092%=      5-min Rain = 0
KCA1 151051Z 23000KT 20/18 A3009 RMK A01 T01960181  RH  091%=      5-min Rain = 0
KCA1 151052Z 21000KT 20/18 A3009 RMK A01 T01960181  RH  091%=      5-min Rain = 0
KCA1 151053Z 24000KT 20/18 A3009 RMK A01 T01960181  RH  091%=      5-min Rain = 0
KCA1 151054Z 26001KT 20/18 A301 RMK A01 T01960181  RH  091%=      5-min Rain = 0
KCA1 151055Z 27001KT 20/18 A301 RMK A01 T01960181  RH  091%=      5-min Rain = 0
KCA1 151056Z 27001KT 20/18 A301 RMK A01 T01960181  RH  091%=      5-min Rain = 0
KCA1 151057Z 28001KT 20/18 A301 RMK A01 T01970181  RH  090%=      5-min Rain = 0
KCA1 151058Z 29002KT 20/18 A301 RMK A01 T01970181  RH  090%=      5-min Rain = 0
KCA1 151059Z 31002KT 20/18 A301 RMK A01 T01970181  RH  090%=      5-min Rain = 0
KCA1 151100Z 31003KT 20/18 A301 RMK A01 T01980182  RH  090%=      5-min Rain = 0
KCA1 151101Z 31003KT 20/18 A301 RMK A01 T01980182  RH  090%=      5-min Rain = 0
KCA1 151102Z 30003KT 20/18 A301 RMK A01 T01980182  RH  091%=      5-min Rain = 0
KCA1 151103Z 30003KT 20/18 A301 RMK A01 T01980182  RH  090%=      5-min Rain = 0
KCA1 151104Z 30004KT 20/18 A301 RMK A01 T01990182  RH  090%=      5-min Rain = 0
KCA1 151105Z 30004KT 20/18 A301 RMK A01 T02000182  RH  090%=      5-min Rain = 0
KCA1 151106Z 30004KT 20/18 A301 RMK A01 T02000182  RH  090%=      5-min Rain = 0
KCA1 151107Z 30004KT 20/18 A301 RMK A01 T02000182  RH  089%=      5-min Rain = 0
KCA1 151108Z 30004KT 20/18 A301 RMK A01 T02010182  RH  089%=      5-min Rain = 0
KCA1 151109Z 30004KT 20/18 A301 RMK A01 T02020182  RH  088%=      5-min Rain = 0
KCA1 151110Z 31004KT 20/18 A301 RMK A01 T02020183  RH  089%=      5-min Rain = 0
KCA1 151111Z 31004KT 20/18 A301 RMK A01 T02010183  RH  089%=      5-min Rain = 0
KCA1 151112Z 31004KT 20/18 A301 RMK A01 T02010183  RH  089%=      5-min Rain = 0
KCA1 151113Z 30003KT 20/18 A301 RMK A01 T02010183  RH  090%=      5-min Rain = 0
KCA1 151114Z 29003KT 20/18 A301 RMK A01 T02010183  RH  090%=      5-min Rain = 0
KCA1 151115Z 28003KT 20/18 A301 RMK A01 T02010182  RH  089%=      5-min Rain = 0
KCA1 151116Z 28003KT 20/18 A301 RMK A01 T02020182  RH  088%=      5-min Rain = 0
KCA1 151117Z 28003KT 20/18 A301 RMK A01 T02030182  RH  088%=      5-min Rain = 0
KCA1 151118Z 28003KT 21/18 A301 RMK A01 T02050182  RH  087%=      5-min Rain = 0
KCA1 151119Z 27003KT 21/18 A301 RMK A01 T02060182  RH  086%=      5-min Rain = 0
KCA1 151120Z 26003KT 21/18 A301 RMK A01 T02070182  RH  086%=      5-min Rain = 0
KCA1 151121Z 26003KT 21/18 A301 RMK A01 T02080183  RH  085%=      5-min Rain = 0
KCA1 151122Z 26003KT 21/18 A301 RMK A01 T02090182  RH  085%=      5-min Rain = 0
KCA1 151123Z 26003KT 21/18 A301 RMK A01 T02100183  RH  084%=      5-min Rain = 0
KCA1 151124Z 26003KT 21/18 A301 RMK A01 T02100182  RH  084%=      5-min Rain = 0
KCA1 151125Z 26003KT 21/18 A301 RMK A01 T02100183  RH  084%=      5-min Rain = 0
KCA1 151126Z 25003KT 21/18 A301 RMK A01 T02110183  RH  084%=      5-min Rain = 0
KCA1 151127Z 25003KT 21/18 A301 RMK A01 T02100182  RH  084%=      5-min Rain = 0
KCA1 151128Z 25003KT 21/18 A301 RMK A01 T02110182  RH  084%=      5-min Rain = 0
KCA1 151129Z 25003KT 21/18 A301 RMK A01 T02110182  RH  084%=      5-min Rain = 0
KCA1 151130Z 24002KT 21/18 A301 RMK A01 T02110182  RH  084%=      5-min Rain = 0
KCA1 151131Z 24003KT 21/18 A301 RMK A01 T02110182  RH  084%=      5-min Rain = 0
KCA1 151132Z 24003KT 21/18 A301 RMK A01 T02110182  RH  084%=      5-min Rain = 0
KCA1 151133Z 24003KT 21/18 A301 RMK A01 T02110182  RH  084%=      5-min Rain = 0
KCA1 151134Z 24003KT 21/18 A301 RMK A01 T02110183  RH  084%=      5-min Rain = 0
KCA1 151135Z 24004KT 21/18 A301 RMK A01 T02110183  RH  084%=      5-min Rain = 0
KCA1 151136Z 24003KT 21/18 A301 RMK A01 T02110183  RH  084%=      5-min Rain = 0
KCA1 151137Z 25003KT 21/18 A301 RMK A01 T02110183  RH  084%=      5-min Rain = 0
KCA1 151138Z 26004KT 21/18 A301 RMK A01 T02110183  RH  084%=      5-min Rain = 0
KCA1 151139Z 27003KT 21/18 A301 RMK A01 T02110183  RH  084%=      5-min Rain = 0
KCA1 151140Z 27004KT 21/18 A301 RMK A01 T02110183  RH  084%=      5-min Rain = 0
KCA1 151141Z 27005KT 21/18 A301 RMK A01 T02110183  RH  084%=      5-min Rain = 0
KCA1 151142Z 28005KT 21/18 A301 RMK A01 T02110184  RH  084%=      5-min Rain = 0
KCA1 151143Z 28005KT 21/18 A301 RMK A01 T02110184  RH  084%=      5-min Rain = 0
KCA1 151144Z 28006KT 21/18 A301 RMK A01 T02100183  RH  085%=      5-min Rain = 0
KCA1 151145Z 28006KT 21/18 A301 RMK A01 T02100184  RH  085%=      5-min Rain = 0
KCA1 151146Z 29007KT 21/18 A3011 RMK A01 T02080184  RH  086%=      5-min Rain = 0
KCA1 151147Z 29007KT 21/19 A3011 RMK A01 T02080185  RH  087%=      5-min Rain = 0
KCA1 151148Z 29007KT 21/19 A3011 RMK A01 T02070185  RH  087%=      5-min Rain = 0
KCA1 151149Z 29008KT 21/19 A3011 RMK A01 T02070186  RH  088%=      5-min Rain = 0
KCA1 151150Z 29008KT 21/19 A3011 RMK A01 T02070185  RH  087%=      5-min Rain = 0
KCA1 151151Z 30008KT 21/19 A3011 RMK A01 T02070185  RH  087%=      5-min Rain = 0
KCA1 151152Z 30007KT 21/19 A3011 RMK A01 T02080185  RH  087%=      5-min Rain = 0
KCA1 151153Z 31008KT 21/19 A3011 RMK A01 T02080185  RH  087%=      5-min Rain = 0
KCA1 151154Z 30008KT 21/19 A3011 RMK A01 T02080185  RH  087%=      5-min Rain = 0
KCA1 151155Z 30007KT 21/19 A3011 RMK A01 T02080185  RH  087%=      5-min Rain = 0
KCA1 151156Z 31006KT 21/19 A3011 RMK A01 T02080185  RH  087%=      5-min Rain = 0
KCA1 151157Z 30009KT 21/18 A3012 RMK A01 T02080184  RH  086%=      5-min Rain = 0
KCA1 151158Z 30011KT 21/18 A3012 RMK A01 T02080184  RH  086%=      5-min Rain = 0
KCA1 151159Z 29011KT 21/18 A3012 RMK A01 T02090184  RH  086%=      5-min Rain = 0
KCA1 151200Z 29010KT 21/18 A3012 RMK A01 T02090184  RH  085%=      5-min Rain = 0
KCA1 151201Z 30009KT 21/18 A3012 RMK A01 T02100183  RH  084%=      5-min Rain = 0
KCA1 151202Z 29006KT 21/18 A3011 RMK A01 T02100182  RH  084%=      5-min Rain = 0
KCA1 151203Z 29007KT 21/18 A3011 RMK A01 T02100182  RH  084%=      5-min Rain = 0
KCA1 151204Z 29006KT 21/18 A3011 RMK A01 T02100182  RH  084%=      5-min Rain = 0
KCA1 151205Z 29007KT 21/18 A3011 RMK A01 T02100182  RH  084%=      5-min Rain = 0
KCA1 151206Z 29008KT 21/18 A3011 RMK A01 T02100182  RH  084%=      5-min Rain = 0
KCA1 151207Z 28007KT 21/18 A3011 RMK A01 T02100182  RH  084%=      5-min Rain = 0
KCA1 151208Z 28006KT 21/18 A3011 RMK A01 T02100182  RH  084%=      5-min Rain = 0
KCA1 151209Z 28006KT 21/18 A3011 RMK A01 T02100181  RH  084%=      5-min Rain = 0
KCA1 151210Z 28005KT 21/18 A3011 RMK A01 T02100182  RH  084%=      5-min Rain = 0
KCA1 151211Z 27004KT 21/18 A3011 RMK A01 T02100182  RH  084%=      5-min Rain = 0
KCA1 151212Z 27004KT 21/18 A3011 RMK A01 T02100182  RH  084%=      5-min Rain = 0
KCA1 151213Z 27004KT 21/18 A3011 RMK A01 T02100182  RH  084%=      5-min Rain = 0
KCA1 151214Z 27004KT 21/18 A3011 RMK A01 T02090182  RH  084%=      5-min Rain = 0
KCA1 151215Z 26004KT 21/18 A3011 RMK A01 T02100182  RH  084%=      5-min Rain = 0
KCA1 151216Z 25004KT 21/18 A3011 RMK A01 T02100182  RH  084%=      5-min Rain = 0
KCA1 151217Z 25005KT 21/18 A3011 RMK A01 T02100182  RH  084%=      5-min Rain = 0
KCA1 151218Z 24006KT 21/18 A3011 RMK A01 T02100183  RH  084%=      5-min Rain = 0
KCA1 151219Z 23004KT 21/18 A3011 RMK A01 T02100183  RH  084%=      5-min Rain = 0
KCA1 151220Z 23005KT 21/18 A3011 RMK A01 T02100183  RH  084%=      5-min Rain = 0
KCA1 151221Z 22005KT 21/18 A301 RMK A01 T02100183  RH  084%=      5-min Rain = 0
KCA1 151222Z 22006KT 21/18 A301 RMK A01 T02110183  RH  084%=      5-min Rain = 0
KCA1 151223Z 22006KT 21/18 A301 RMK A01 T02110183  RH  084%=      5-min Rain = 0
KCA1 151224Z 22007KT 21/18 A301 RMK A01 T02110183  RH  084%=      5-min Rain = 0
KCA1 151225Z 21007KT 21/18 A301 RMK A01 T02120183  RH  084%=      5-min Rain = 0
KCA1 151226Z 21009KT 21/18 A301 RMK A01 T02120183  RH  083%=      5-min Rain = 0
KCA1 151227Z 21007KT 21/18 A301 RMK A01 T02130183  RH  083%=      5-min Rain = 0
KCA1 151228Z 21007KT 21/18 A301 RMK A01 T02140183  RH  083%=      5-min Rain = 0
KCA1 151229Z 21007KT 21/18 A301 RMK A01 T02140183  RH  082%=      5-min Rain = 0
KCA1 151230Z 20007KT 22/18 A3009 RMK A01 T02150183  RH  082%=      5-min Rain = 0
KCA1 151231Z 20006KT 22/18 A3009 RMK A01 T02170183  RH  081%=      5-min Rain = 0
KCA1 151232Z 19007KT 22/18 A3009 RMK A01 T02170182  RH  081%=      5-min Rain = 0
KCA1 151233Z 20007KT 22/18 A3009 RMK A01 T02180182  RH  080%=      5-min Rain = 0
KCA1 151234Z 21006KT 22/18 A3009 RMK A01 T02190182  RH  079%=      5-min Rain = 0
KCA1 151235Z 20006KT 22/18 A3009 RMK A01 T02200183  RH  080%=      5-min Rain = 0
KCA1 151236Z 20007KT 22/18 A3008 RMK A01 T02200183  RH  079%=      5-min Rain = 0
KCA1 151237Z 19006KT 22/18 A3008 RMK A01 T02200181  RH  079%=      5-min Rain = 0
KCA1 151238Z 18006KT 22/18 A3008 RMK A01 T02200181  RH  078%=      5-min Rain = 0
KCA1 151239Z 18007KT 22/18 A3008 RMK A01 T02210181  RH  078%=      5-min Rain = 0
KCA1 151240Z 18006KT 22/18 A3008 RMK A01 T02220180  RH  077%=      5-min Rain = 0
KCA1 151241Z 18007KT 22/18 A3008 RMK A01 T02220180  RH  077%=      5-min Rain = 0
KCA1 151242Z 18006KT 22/18 A3008 RMK A01 T02230180  RH  077%=      5-min Rain = 0
KCA1 151243Z 18006KT 22/18 A3008 RMK A01 T02230180  RH  076%=      5-min Rain = 0
KCA1 151244Z 18005KT 22/18 A3007 RMK A01 T02230181  RH  077%=      5-min Rain = 0
KCA1 151245Z 17005KT 22/18 A3007 RMK A01 T02230181  RH  077%=      5-min Rain = 0
KCA1 151246Z 18006KT 22/18 A3007 RMK A01 T02230181  RH  077%=      5-min Rain = 0
KCA1 151247Z 18007KT 22/18 A3007 RMK A01 T02220178  RH  076%=      5-min Rain = 0
KCA1 151248Z 17006KT 22/18 A3007 RMK A01 T02230179  RH  076%=      5-min Rain = 0
KCA1 151249Z 18007KT 22/18 A3007 RMK A01 T02230179  RH  076%=      5-min Rain = 0
KCA1 151250Z 18007KT 22/18 A3007 RMK A01 T02230178  RH  076%=      5-min Rain = 0
KCA1 151251Z 18006KT 22/18 A3007 RMK A01 T02230176  RH  074%=      5-min Rain = 0
KCA1 151252Z 19007KT 22/18 A3006 RMK A01 T02240176  RH  074%=      5-min Rain = 0
KCA1 151253Z 19008KT 23/17 A3006 RMK A01 T02250171  RH  072%=      5-min Rain = 0
KCA1 151254Z 19008KT 23/17 A3006 RMK A01 T02260169  RH  070%=      5-min Rain = 0
KCA1 151255Z 20011KT 23/16 A3006 RMK A01 T02270164  RH  067%=      5-min Rain = 0
KCA1 151256Z 19009KT 23/16 A3006 RMK A01 T02280161  RH  066%=      5-min Rain = 0
KCA1 151257Z 20008KT 23/16 A3006 RMK A01 T02290161  RH  065%=      5-min Rain = 0
KCA1 151258Z 19010KT 23/16 A3006 RMK A01 T02290160  RH  065%=      5-min Rain = 0
KCA1 151259Z 20011KT 23/16 A3006 RMK A01 T02290156  RH  064%=      5-min Rain = 0
KCA1 151300Z 20009KT 23/16 A3005 RMK A01 T02290155  RH  063%=      5-min Rain = 0
KCA1 151301Z 20012G17KT 23/16 A3005 RMK A01 T02300155  RH  063%=      5-min Rain = 0
KCA1 151302Z 20012KT 23/15 A3005 RMK A01 T02300154  RH  062%=      5-min Rain = 0
KCA1 151303Z 20011KT 23/15 A3005 RMK A01 T02300154  RH  062%=      5-min Rain = 0
KCA1 151304Z 20010KT 23/16 A3005 RMK A01 T02300155  RH  062%=      5-min Rain = 0
KCA1 151305Z 19012KT 23/16 A3005 RMK A01 T02300155  RH  063%=      5-min Rain = 0
KCA1 151306Z 20010G15KT 23/15 A3005 RMK A01 T02300154  RH  063%=      5-min Rain = 0
KCA1 151307Z 19010KT 23/15 A3005 RMK A01 T02290154  RH  063%=      5-min Rain = 0
KCA1 151308Z 19012KT 23/15 A3005 RMK A01 T02290154  RH  062%=      5-min Rain = 0
KCA1 151309Z 18013KT 23/15 A3004 RMK A01 T02280153  RH  063%=      5-min Rain = 0
KCA1 151310Z 18013KT 23/15 A3004 RMK A01 T02280152  RH  062%=      5-min Rain = 0
KCA1 151311Z 19014KT 23/15 A3004 RMK A01 T02280152  RH  062%=      5-min Rain = 0
KCA1 151312Z 19013KT 23/15 A3004 RMK A01 T02280150  RH  061%=      5-min Rain = 0
KCA1 151313Z 19015KT 23/15 A3004 RMK A01 T02280149  RH  061%=      5-min Rain = 0
KCA1 151314Z 19013KT 23/15 A3003 RMK A01 T02290149  RH  060%=      5-min Rain = 0
KCA1 151315Z 18015KT 23/15 A3003 RMK A01 T02300148  RH  060%=      5-min Rain = 0
KCA1 151316Z 18014KT 23/15 A3003 RMK A01 T02300149  RH  060%=      5-min Rain = 0
KCA1 151317Z 18013KT 23/15 A3003 RMK A01 T02300149  RH  060%=      5-min Rain = 0
KCA1 151318Z 18015KT 23/15 A3002 RMK A01 T02300149  RH  060%=      5-min Rain = 0
KCA1 151319Z 19014KT 23/15 A3002 RMK A01 T02300146  RH  059%=      5-min Rain = 0
KCA1 151320Z 18016KT 23/15 A3002 RMK A01 T02300146  RH  059%=      5-min Rain = 0
KCA1 151321Z 18016KT 23/15 A3002 RMK A01 T02310145  RH  058%=      5-min Rain = 0
KCA1 151322Z 18016KT 23/14 A3002 RMK A01 T02320144  RH  058%=      5-min Rain = 0
KCA1 151323Z 18015KT 23/14 A3001 RMK A01 T02320144  RH  058%=      5-min Rain = 0
KCA1 151324Z 18016KT 23/14 A3001 RMK A01 T02330144  RH  057%=      5-min Rain = 0
KCA1 151325Z 18015KT 23/14 A3001 RMK A01 T02340143  RH  057%=      5-min Rain = 0
KCA1 151326Z 19014KT 24/14 A3001 RMK A01 T02350143  RH  056%=      5-min Rain = 0
KCA1 151327Z 19016G21KT 24/14 A3001 RMK A01 T02360141  RH  055%=      5-min Rain = 0
KCA1 151328Z 19015KT 24/14 A30 RMK A01 T02370140  RH  054%=      5-min Rain = 0
KCA1 151329Z 19016KT 24/14 A30 RMK A01 T02390137  RH  053%=      5-min Rain = 0
KCA1 151330Z 20014KT 24/14 A30 RMK A01 T02410135  RH  052%=      5-min Rain = 0
KCA1 151331Z 19015KT 24/13 A30 RMK A01 T02430134  RH  050%=      5-min Rain = 0
KCA1 151332Z 20011G16KT 25/14 A30 RMK A01 T02450135  RH  050%=      5-min Rain = 0
KCA1 151333Z 20016KT 25/13 A30 RMK A01 T02450133  RH  050%=      5-min Rain = 0
KCA1 151334Z 21016KT 25/13 A30 RMK A01 T02470128  RH  048%=      5-min Rain = 0
KCA1 151335Z 21016G22KT 25/13 A30 RMK A01 T02510126  RH  046%=      5-min Rain = 0
KCA1 151336Z 21018KT 25/13 A2999 RMK A01 T02530125  RH  045%=      5-min Rain = 0
KCA1 151337Z 21019G24KT 26/12 A2999 RMK A01 T02550123  RH  044%=      5-min Rain = 0
KCA1 151338Z 21018G25KT 26/12 A2999 RMK A01 T02570123  RH  043%=      5-min Rain = 0
KCA1 151339Z 21019G24KT 26/12 A2999 RMK A01 T02590121  RH  042%=      5-min Rain = 0
KCA1 151340Z 21024G31KT 26/12 A2999 RMK A01 T02610119  RH  041%=      5-min Rain = 0
KCA1 151341Z 22022KT 26/12 A2999 RMK A01 T02640118  RH  040%=      5-min Rain = 0
KCA1 151342Z 21020KT 27/12 A2999 RMK A01 T02660118  RH  040%=      5-min Rain = 0
KCA1 151343Z 21021G27KT 27/12 A2999 RMK A01 T02670118  RH  040%=      5-min Rain = 0
KCA1 151344Z 22021G26KT 27/12 A2999 RMK A01 T02680118  RH  039%=      5-min Rain = 0
KCA1 151345Z 22023G28KT 27/12 A2999 RMK A01 T02680117  RH  039%=      5-min Rain = 0
KCA1 151346Z 22020G25KT 27/12 A2999 RMK A01 T02690117  RH  039%=      5-min Rain = 0
KCA1 151347Z 22021G27KT 27/12 A2999 RMK A01 T02700117  RH  039%=      5-min Rain = 0
KCA1 151348Z 21024G30KT 27/12 A2999 RMK A01 T02710116  RH  038%=      5-min Rain = 0
KCA1 151349Z 21026KT 27/11 A30 RMK A01 T02720114  RH  037%=      5-min Rain = 0
KCA1 151350Z 22020KT 27/12 A30 RMK A01 T02740115  RH  037%=      5-min Rain = 0
KCA1 151351Z 22021G26KT 27/12 A30 RMK A01 T02740116  RH  037%=      5-min Rain = 0
KCA1 151352Z 22023G28KT 27/11 A30 RMK A01 T02740114  RH  037%=      5-min Rain = 0
KCA1 151353Z 22019G24KT 28/11 A3001 RMK A01 T02750114  RH  037%=      5-min Rain = 0
KCA1 151354Z 22018G28KT 28/12 A3001 RMK A01 T02750115  RH  037%=      5-min Rain = 0
KCA1 151355Z 22022KT 28/11 A3001 RMK A01 T02750114  RH  037%=      5-min Rain = 0
KCA1 151356Z 22020G26KT 28/11 A3001 RMK A01 T02760114  RH  036%=      5-min Rain = 0
KCA1 151357Z 22018KT 28/11 A3001 RMK A01 T02760114  RH  036%=      5-min Rain = 0
KCA1 151358Z 22020G27KT 28/11 A3001 RMK A01 T02770113  RH  036%=      5-min Rain = 0
KCA1 151359Z 22016G23KT 28/11 A3001 RMK A01 T02770114  RH  036%=      5-min Rain = 0
KCA1 151400Z 23016KT 28/12 A3002 RMK A01 T02770116  RH  037%=      5-min Rain = 0
KCA1 151401Z 22020G25KT 28/12 A3002 RMK A01 T02770115  RH  037%=      5-min Rain = 0
KCA1 151402Z 22013KT 28/12 A3002 RMK A01 T02770116  RH  037%=      5-min Rain = 0
KCA1 151403Z 22015KT 28/12 A3002 RMK A01 T02760117  RH  037%=      5-min Rain = 0
KCA1 151404Z 22014G19KT 28/12 A3002 RMK A01 T02760118  RH  038%=      5-min Rain = 0
KCA1 151405Z 22016G21KT 28/12 A3002 RMK A01 T02750117  RH  038%=      5-min Rain = 0
KCA1 151406Z 22015KT 28/12 A3002 RMK A01 T02750117  RH  037%=      5-min Rain = 0
KCA1 151407Z 22016G23KT 28/12 A3002 RMK A01 T02750115  RH  037%=      5-min Rain = 0
KCA1 151408Z 22016KT 28/12 A3002 RMK A01 T02760116  RH  037%=      5-min Rain = 0
KCA1 151409Z 22013KT 28/12 A3002 RMK A01 T02760115  RH  037%=      5-min Rain = 0
KCA1 151410Z 22013KT 28/12 A3003 RMK A01 T02770116  RH  037%=      5-min Rain = 0
KCA1 151411Z 22011KT 28/12 A3003 RMK A01 T02760116  RH  037%=      5-min Rain = 0
KCA1 151412Z 22011KT 28/12 A3003 RMK A01 T02760118  RH  037%=      5-min Rain = 0
KCA1 151413Z 22011KT 28/12 A3002 RMK A01 T02760118  RH  037%=      5-min Rain = 0
KCA1 151414Z 22012KT 28/12 A3003 RMK A01 T02760118  RH  037%=      5-min Rain = 0
KCA1 151415Z 22011KT 28/12 A3003 RMK A01 T02760117  RH  037%=      5-min Rain = 0
KCA1 151416Z 22013KT 28/12 A3002 RMK A01 T02760118  RH  037%=      5-min Rain = 0
KCA1 151417Z 22013G18KT 28/12 A3003 RMK A01 T02760118  RH  037%=      5-min Rain = 0
KCA1 151418Z 22017G22KT 28/12 A3002 RMK A01 T02760117  RH  037%=      5-min Rain = 0
KCA1 151419Z 21017KT 28/12 A3002 RMK A01 T02760117  RH  037%=      5-min Rain = 0
KCA1 151420Z 21013KT 28/12 A3002 RMK A01 T02760117  RH  037%=      5-min Rain = 0
KCA1 151421Z 21013KT 28/12 A3002 RMK A01 T02760118  RH  037%=      5-min Rain = 0
KCA1 151422Z 21012G17KT 28/12 A3002 RMK A01 T02760118  RH  037%=      5-min Rain = 0
KCA1 151423Z 21015KT 28/12 A3002 RMK A01 T02760117  RH  037%=      5-min Rain = 0
KCA1 151424Z 21013KT 28/12 A3002 RMK A01 T02760116  RH  037%=      5-min Rain = 0
KCA1 151425Z 22012KT 28/12 A3002 RMK A01 T02780117  RH  037%=      5-min Rain = 0
KCA1 151426Z 21012KT 28/12 A3002 RMK A01 T02790118  RH  037%=      5-min Rain = 0
KCA1 151427Z 22015KT 28/12 A3002 RMK A01 T02800118  RH  037%=      5-min Rain = 0
KCA1 151428Z 22013KT 28/12 A3002 RMK A01 T02820119  RH  036%=      5-min Rain = 0
KCA1 151429Z 22012KT 28/12 A3002 RMK A01 T02830119  RH  036%=      5-min Rain = 0
KCA1 151430Z 22014KT 28/12 A3002 RMK A01 T02830119  RH  036%=      5-min Rain = 0
KCA1 151431Z 22015KT 29/12 A3002 RMK A01 T02850118  RH  036%=      5-min Rain = 0
KCA1 151432Z 23014G19KT 29/12 A3002 RMK A01 T02880118  RH  035%=      5-min Rain = 0
KCA1 151433Z 22014KT 29/12 A3002 RMK A01 T02900119  RH  035%=      5-min Rain = 0
KCA1 151434Z 22015KT 29/12 A3002 RMK A01 T02900117  RH  034%=      5-min Rain = 0
KCA1 151435Z 22013KT 29/12 A3002 RMK A01 T02900117  RH  034%=      5-min Rain = 0
KCA1 151436Z 22012KT 29/12 A3002 RMK A01 T02900118  RH  034%=      5-min Rain = 0
KCA1 151437Z 23014KT 29/12 A3002 RMK A01 T02920119  RH  034%=      5-min Rain = 0
KCA1 151438Z 23017KT 29/12 A3002 RMK A01 T02930116  RH  034%=      5-min Rain = 0
KCA1 151439Z 22016KT 29/11 A3002 RMK A01 T02930114  RH  033%=      5-min Rain = 0
KCA1 151440Z 23015KT 29/12 A3002 RMK A01 T02930115  RH  033%=      5-min Rain = 0
KCA1 151441Z 23017KT 30/11 A3002 RMK A01 T02950114  RH  033%=      5-min Rain = 0
KCA1 151442Z 22017G23KT 30/11 A3002 RMK A01 T02970114  RH  032%=      5-min Rain = 0
KCA1 151443Z 22018G23KT 30/11 A3002 RMK A01 T02990113  RH  032%=      5-min Rain = 0
KCA1 151444Z 22017G22KT 30/11 A3002 RMK A01 T02990111  RH  031%=      5-min Rain = 0
KCA1 151445Z 22017KT 30/11 A3002 RMK A01 T02980114  RH  032%=      5-min Rain = 0
KCA1 151446Z 22017KT 30/11 A3002 RMK A01 T02970112  RH  032%=      5-min Rain = 0
KCA1 151447Z 22019KT 30/11 A3002 RMK A01 T02960111  RH  032%=      5-min Rain = 0
KCA1 151448Z 22018KT 30/11 A3003 RMK A01 T02970111  RH  031%=      5-min Rain = 0
KCA1 151449Z 22019KT 30/11 A3003 RMK A01 T03000111  RH  031%=      5-min Rain = 0
KCA1 151450Z 22019KT 30/11 A3003 RMK A01 T03020111  RH  031%=      5-min Rain = 0
KCA1 151451Z 22016G22KT 30/11 A3003 RMK A01 T03020112  RH  031%=      5-min Rain = 0
KCA1 151452Z 22014KT 30/11 A3003 RMK A01 T03030114  RH  031%=      5-min Rain = 0
KCA1 151453Z 21013KT 31/12 A3003 RMK A01 T03050117  RH  031%=      5-min Rain = 0
KCA1 151454Z 21012KT 31/12 A3003 RMK A01 T03060117  RH  031%=      5-min Rain = 0
KCA1 151455Z 21013KT 31/12 A3003 RMK A01 T03060117  RH  031%=      5-min Rain = 0
KCA1 151456Z 21012KT 31/12 A3004 RMK A01 T03070119  RH  031%=      5-min Rain = 0
KCA1 151457Z 21015KT 31/12 A3004 RMK A01 T03080117  RH  031%=      5-min Rain = 0
KCA1 151458Z 21012G17KT 31/12 A3004 RMK A01 T03080115  RH  030%=      5-min Rain = 0
KCA1 151459Z 21013KT 31/12 A3004 RMK A01 T03080117  RH  031%=      5-min Rain = 0
KCA1 151500Z 21012KT 31/12 A3004 RMK A01 T03090116  RH  031%=      5-min Rain = 0
KCA1 151501Z 20013KT 31/12 A3004 RMK A01 T03080117  RH  031%=      5-min Rain = 0
KCA1 151502Z 20013KT 31/12 A3004 RMK A01 T03080116  RH  031%=      5-min Rain = 0
KCA1 151503Z 19011KT 31/12 A3004 RMK A01 T03090117  RH  031%=      5-min Rain = 0
KCA1 151504Z 21013KT 31/12 A3004 RMK A01 T03090116  RH  031%=      5-min Rain = 0
KCA1 151505Z 20011G16KT 31/12 A3004 RMK A01 T03090120  RH  031%=      5-min Rain = 0
KCA1 151506Z 20013KT 31/12 A3004 RMK A01 T03100118  RH  031%=      5-min Rain = 0
KCA1 151507Z 20012KT 31/12 A3004 RMK A01 T03110119  RH  031%=      5-min Rain = 0
KCA1 151508Z 21010KT 31/12 A3005 RMK A01 T03120121  RH  031%=      5-min Rain = 0
KCA1 151509Z 21014KT 31/12 A3005 RMK A01 T03130120  RH  030%=      5-min Rain = 0
KCA1 151510Z 20014KT 31/12 A3005 RMK A01 T03130120  RH  031%=      5-min Rain = 0
KCA1 151511Z 21014KT 31/12 A3005 RMK A01 T03130118  RH  030%=      5-min Rain = 0
KCA1 151512Z 20012G17KT 31/12 A3005 RMK A01 T03110121  RH  031%=      5-min Rain = 0
KCA1 151513Z 19014KT 31/12 A3005 RMK A01 T03110119  RH  031%=      5-min Rain = 0
KCA1 151514Z 20012KT 31/12 A3005 RMK A01 T03130120  RH  031%=      5-min Rain = 0
KCA1 151515Z 21009KT 31/12 A3005 RMK A01 T03140122  RH  031%=      5-min Rain = 0
KCA1 151516Z 21015KT 32/12 A3005 RMK A01 T03150118  RH  030%=      5-min Rain = 0
KCA1 151517Z 21016KT 31/12 A3005 RMK A01 T03130115  RH  030%=      5-min Rain = 0
KCA1 151518Z 19012KT 31/12 A3005 RMK A01 T03110116  RH  030%=      5-min Rain = 0
KCA1 151519Z 20009KT 31/12 A3005 RMK A01 T03100122  RH  032%=      5-min Rain = 0
KCA1 151520Z 20010KT 31/12 A3005 RMK A01 T03120121  RH  031%=      5-min Rain = 0
KCA1 151521Z 19016G22KT 31/12 A3005 RMK A01 T03140123  RH  031%=      5-min Rain = 0
KCA1 151522Z 21014G20KT 31/12 A3005 RMK A01 T03140117  RH  030%=      5-min Rain = 0
KCA1 151523Z 21015KT 31/12 A3005 RMK A01 T03120119  RH  031%=      5-min Rain = 0
KCA1 151524Z 21014KT 31/12 A3005 RMK A01 T03110120  RH  031%=      5-min Rain = 0
KCA1 151525Z 21013G19KT 31/12 A3005 RMK A01 T03120122  RH  031%=      5-min Rain = 0
KCA1 151526Z 21017G22KT 31/12 A3005 RMK A01 T03130119  RH  031%=      5-min Rain = 0
KCA1 151527Z 21012KT 31/12 A3005 RMK A01 T03130121  RH  031%=      5-min Rain = 0
KCA1 151528Z 21012G17KT 31/12 A3005 RMK A01 T03130123  RH  031%=      5-min Rain = 0
KCA1 151529Z 22015KT 31/12 A3005 RMK A01 T03140122  RH  031%=      5-min Rain = 0
KCA1 151530Z 21016KT 31/12 A3005 RMK A01 T03130121  RH  031%=      5-min Rain = 0
KCA1 151531Z 20015G20KT 31/12 A3005 RMK A01 T03120122  RH  031%=      5-min Rain = 0
KCA1 151532Z 20016KT 31/12 A3005 RMK A01 T03120121  RH  031%=      5-min Rain = 0
KCA1 151533Z 20015G22KT 31/13 A3005 RMK A01 T03110125  RH  032%=      5-min Rain = 0
KCA1 151534Z 20019KT 31/12 A3005 RMK A01 T03130122  RH  031%=      5-min Rain = 0
KCA1 151535Z 20015G21KT 31/12 A3005 RMK A01 T03120122  RH  031%=      5-min Rain = 0
KCA1 151536Z 20017KT 31/12 A3005 RMK A01 T03110123  RH  031%=      5-min Rain = 0
KCA1 151537Z 19017G22KT 31/12 A3005 RMK A01 T03120121  RH  031%=      5-min Rain = 0
KCA1 151538Z 19015KT 31/12 A3005 RMK A01 T03120123  RH  032%=      5-min Rain = 0
KCA1 151539Z 19014KT 31/12 A3005 RMK A01 T03120123  RH  031%=      5-min Rain = 0
KCA1 151540Z 19012KT 31/12 A3005 RMK A01 T03120123  RH  031%=      5-min Rain = 0
KCA1 151541Z 19013G18KT 31/12 A3005 RMK A01 T03130124  RH  032%=      5-min Rain = 0
KCA1 151542Z 22014KT 31/12 A3004 RMK A01 T03120122  RH  031%=      5-min Rain = 0
KCA1 151543Z 22017KT 31/12 A3004 RMK A01 T03120124  RH  032%=      5-min Rain = 0
KCA1 151544Z 20017KT 31/12 A3004 RMK A01 T03140124  RH  031%=      5-min Rain = 0
KCA1 151545Z 20015KT 31/12 A3004 RMK A01 T03140123  RH  031%=      5-min Rain = 0
KCA1 151546Z 20016KT 32/12 A3004 RMK A01 T03150122  RH  031%=      5-min Rain = 0
KCA1 151547Z 20016KT 32/12 A3004 RMK A01 T03150122  RH  031%=      5-min Rain = 0
KCA1 151548Z 21013KT 32/12 A3004 RMK A01 T03150121  RH  031%=      5-min Rain = 0
KCA1 151549Z 21010KT 31/13 A3004 RMK A01 T03140125  RH  031%=      5-min Rain = 0
KCA1 151550Z 21011KT 32/13 A3004 RMK A01 T03160126  RH  031%=      5-min Rain = 0
KCA1 151551Z 21011KT 32/13 A3004 RMK A01 T03170126  RH  031%=      5-min Rain = 0
KCA1 151552Z 21011KT 32/13 A3004 RMK A01 T03170128  RH  032%=      5-min Rain = 0
KCA1 151553Z 21015KT 32/13 A3004 RMK A01 T03190128  RH  031%=      5-min Rain = 0
KCA1 151554Z 22012KT 32/13 A3004 RMK A01 T03210128  RH  031%=      5-min Rain = 0
KCA1 151555Z 22011KT 32/13 A3004 RMK A01 T03210129  RH  031%=      5-min Rain = 0
KCA1 151556Z 22010KT 32/13 A3004 RMK A01 T03230130  RH  031%=      5-min Rain = 0
KCA1 151557Z 22010KT 33/13 A3004 RMK A01 T03270134  RH  031%=      5-min Rain = 0
KCA1 151558Z 22011KT 33/13 A3004 RMK A01 T03290133  RH  030%=      5-min Rain = 0
KCA1 151559Z 21009KT 33/13 A3004 RMK A01 T03280130  RH  030%=      5-min Rain = 0
KCA1 151600Z 21011KT 33/13 A3004 RMK A01 T03260132  RH  031%=      5-min Rain = 0
KCA1 151601Z 21010KT 33/13 A3004 RMK A01 T03260130  RH  030%=      5-min Rain = 0
KCA1 151602Z 22011KT 33/13 A3004 RMK A01 T03260131  RH  031%=      5-min Rain = 0
KCA1 151603Z 23013KT 33/13 A3004 RMK A01 T03270129  RH  030%=      5-min Rain = 0
KCA1 151604Z 22015KT 33/13 A3004 RMK A01 T03270129  RH  030%=      5-min Rain = 0
KCA1 151605Z 22015KT 33/13 A3004 RMK A01 T03250128  RH  030%=      5-min Rain = 0
KCA1 151606Z 22013KT 32/13 A3004 RMK A01 T03230128  RH  030%=      5-min Rain = 0
KCA1 151607Z 21014KT 32/13 A3004 RMK A01 T03230131  RH  031%=      5-min Rain = 0
KCA1 151608Z 20015KT 32/13 A3004 RMK A01 T03230131  RH  031%=      5-min Rain = 0
KCA1 151609Z 21016KT 32/13 A3004 RMK A01 T03230131  RH  031%=      5-min Rain = 0
KCA1 151610Z 22014KT 32/13 A3004 RMK A01 T03230132  RH  031%=      5-min Rain = 0
KCA1 151611Z 21010KT 32/13 A3004 RMK A01 T03230134  RH  032%=      5-min Rain = 0
KCA1 151612Z 23011KT 32/14 A3004 RMK A01 T03240135  RH  032%=      5-min Rain = 0
KCA1 151613Z 24011KT 33/13 A3004 RMK A01 T03270134  RH  031%=      5-min Rain = 0
KCA1 151614Z 21012KT 33/14 A3004 RMK A01 T03290138  RH  031%=      5-min Rain = 0
KCA1 151615Z 20012KT 33/14 A3004 RMK A01 T03310135  RH  031%=      5-min Rain = 0
KCA1 151616Z 22010KT 33/14 A3004 RMK A01 T03290136  RH  031%=      5-min Rain = 0
KCA1 151617Z 22008KT 33/14 A3004 RMK A01 T03290137  RH  031%=      5-min Rain = 0
KCA1 151618Z 21010KT 33/14 A3004 RMK A01 T03300137  RH  031%=      5-min Rain = 0
KCA1 151619Z 21010KT 33/14 A3004 RMK A01 T03310136  RH  031%=      5-min Rain = 0
KCA1 151620Z 21010KT 33/14 A3004 RMK A01 T03320137  RH  031%=      5-min Rain = 0
KCA1 151621Z 21010KT 33/14 A3004 RMK A01 T03340139  RH  031%=      5-min Rain = 0
KCA1 151622Z 22014KT 34/14 A3004 RMK A01 T03350135  RH  030%=      5-min Rain = 0
KCA1 151623Z 22010G15KT 33/13 A3004 RMK A01 T03310129  RH  029%=      5-min Rain = 0
KCA1 151624Z 22007KT 33/13 A3004 RMK A01 T03310133  RH  030%=      5-min Rain = 0
KCA1 151625Z 22009KT 33/13 A3004 RMK A01 T03320132  RH  030%=      5-min Rain = 0
KCA1 151626Z 22009KT 33/13 A3004 RMK A01 T03340132  RH  029%=      5-min Rain = 0
KCA1 151627Z 23009KT 34/13 A3004 RMK A01 T03350133  RH  029%=      5-min Rain = 0
KCA1 151628Z 24009KT 34/13 A3004 RMK A01 T03370129  RH  028%=      5-min Rain = 0
KCA1 151629Z 22009KT 34/13 A3003 RMK A01 T03360132  RH  029%=      5-min Rain = 0
KCA1 151630Z 23013KT 34/13 A3003 RMK A01 T03390132  RH  029%=      5-min Rain = 0
KCA1 151631Z 23013KT 34/13 A3003 RMK A01 T03380129  RH  028%=      5-min Rain = 0
KCA1 151632Z 23012KT 34/13 A3004 RMK A01 T03370128  RH  028%=      5-min Rain = 0
KCA1 151633Z 22010KT 34/13 A3004 RMK A01 T03380128  RH  028%=      5-min Rain = 0
KCA1 151634Z 23009KT 34/13 A3004 RMK A01 T03380128  RH  028%=      5-min Rain = 0
KCA1 151635Z 23007KT 34/13 A3004 RMK A01 T03390129  RH  028%=      5-min Rain = 0
KCA1 151636Z 24006KT 34/12 A3004 RMK A01 T03400124  RH  027%=      5-min Rain = 0
KCA1 151637Z 21008KT 34/13 A3004 RMK A01 T03400127  RH  028%=      5-min Rain = 0
KCA1 151638Z 22010KT 34/13 A3003 RMK A01 T03400131  RH  028%=      5-min Rain = 0
KCA1 151639Z 23013G18KT 34/13 A3003 RMK A01 T03410127  RH  027%=      5-min Rain = 0
KCA1 151640Z 23014KT 34/13 A3004 RMK A01 T03410127  RH  027%=      5-min Rain = 0
KCA1 151641Z 24011KT 34/13 A3004 RMK A01 T03410129  RH  028%=      5-min Rain = 0
KCA1 151642Z 24012KT 34/13 A3004 RMK A01 T03420129  RH  028%=      5-min Rain = 0
KCA1 151643Z 23013KT 34/13 A3004 RMK A01 T03420128  RH  028%=      5-min Rain = 0
KCA1 151644Z 22011KT 34/13 A3003 RMK A01 T03410130  RH  028%=      5-min Rain = 0
KCA1 151645Z 23014KT 34/13 A3003 RMK A01 T03410131  RH  028%=      5-min Rain = 0
KCA1 151646Z 23014KT 34/13 A3003 RMK A01 T03410133  RH  028%=      5-min Rain = 0
KCA1 151647Z 22011KT 34/13 A3003 RMK A01 T03400134  RH  029%=      5-min Rain = 0
KCA1 151648Z 23011KT 34/14 A3003 RMK A01 T03400136  RH  029%=      5-min Rain = 0
KCA1 151649Z 23011KT 34/14 A3003 RMK A01 T03410136  RH  029%=      5-min Rain = 0
KCA1 151650Z 24010KT 34/14 A3003 RMK A01 T03420141  RH  030%=      5-min Rain = 0
KCA1 151651Z 24012KT 35/14 A3003 RMK A01 T03470139  RH  029%=      5-min Rain = 0
KCA1 151652Z 24011KT 35/14 A3003 RMK A01 T03480139  RH  029%=      5-min Rain = 0
KCA1 151653Z 24011KT 35/14 A3003 RMK A01 T03480139  RH  029%=      5-min Rain = 0
KCA1 151654Z 23013KT 35/14 A3003 RMK A01 T03480137  RH  028%=      5-min Rain = 0
KCA1 151655Z 24014KT 35/14 A3003 RMK A01 T03470139  RH  029%=      5-min Rain = 0
KCA1 151656Z 23014KT 35/14 A3003 RMK A01 T03460140  RH  029%=      5-min Rain = 0
KCA1 151657Z 24013KT 35/14 A3003 RMK A01 T03450139  RH  029%=      5-min Rain = 0
KCA1 151658Z 23012KT 34/14 A3003 RMK A01 T03440138  RH  029%=      5-min Rain = 0
KCA1 151659Z 23014KT 34/14 A3003 RMK A01 T03430141  RH  030%=      5-min Rain = 0
KCA1 151700Z 23013KT 34/14 A3003 RMK A01 T03430140  RH  030%=      5-min Rain = 0
KCA1 151701Z 23013KT 34/14 A3003 RMK A01 T03430143  RH  030%=      5-min Rain = 0
KCA1 151702Z 21014KT 34/14 A3003 RMK A01 T03440142  RH  030%=      5-min Rain = 0
KCA1 151703Z 23014KT 34/14 A3003 RMK A01 T03430142  RH  030%=      5-min Rain = 0
KCA1 151704Z 23012KT 34/14 A3003 RMK A01 T03410139  RH  030%=      5-min Rain = 0
KCA1 151705Z 22012KT 34/14 A3003 RMK A01 T03390141  RH  030%=      5-min Rain = 0
KCA1 151706Z 23012KT 34/14 A3003 RMK A01 T03390142  RH  031%=      5-min Rain = 0
KCA1 151707Z 23012KT 34/14 A3003 RMK A01 T03400142  RH  030%=      5-min Rain = 0
KCA1 151708Z 21014KT 34/15 A3003 RMK A01 T03410145  RH  031%=      5-min Rain = 0
KCA1 151709Z 21014KT 34/15 A3003 RMK A01 T03400146  RH  031%=      5-min Rain = 0
KCA1 151710Z 22013KT 34/15 A3003 RMK A01 T03420149  RH  031%=      5-min Rain = 0
KCA1 151711Z 22013KT 35/15 A3003 RMK A01 T03460145  RH  030%=      5-min Rain = 0
KCA1 151712Z 21012KT 34/15 A3003 RMK A01 T03440145  RH  030%=      5-min Rain = 0
KCA1 151713Z 22010KT 34/14 A3003 RMK A01 T03400143  RH  031%=      5-min Rain = 0
KCA1 151714Z 24009KT 34/15 A3003 RMK A01 T03390149  RH  032%=      5-min Rain = 0
KCA1 151715Z 24008KT 34/15 A3002 RMK A01 T03430149  RH  031%=      5-min Rain = 0
KCA1 151716Z 23008KT 35/15 A3002 RMK A01 T03470150  RH  031%=      5-min Rain = 0
KCA1 151717Z 23011KT 35/15 A3002 RMK A01 T03490152  RH  031%=      5-min Rain = 0
KCA1 151718Z 22012KT 35/15 A3002 RMK A01 T03490151  RH  031%=      5-min Rain = 0
KCA1 151719Z 23013KT 35/15 A3002 RMK A01 T03480151  RH  031%=      5-min Rain = 0
KCA1 151720Z 24010KT 35/15 A3002 RMK A01 T03480150  RH  031%=      5-min Rain = 0
KCA1 151721Z 23010KT 35/15 A3002 RMK A01 T03490152  RH  031%=      5-min Rain = 0
KCA1 151722Z 23007KT 35/16 A3002 RMK A01 T03500155  RH  031%=      5-min Rain = 0
KCA1 151723Z 22010G15KT 35/16 A3002 RMK A01 T03530159  RH  032%=      5-min Rain = 0
KCA1 151724Z 23012KT 35/16 A3002 RMK A01 T03540159  RH  031%=      5-min Rain = 0
KCA1 151725Z 23013KT 35/16 A3002 RMK A01 T03530159  RH  032%=      5-min Rain = 0
KCA1 151726Z 23011KT 35/16 A3002 RMK A01 T03540158  RH  031%=      5-min Rain = 0
KCA1 151727Z 23012KT 35/16 A3002 RMK A01 T03530157  RH  031%=      5-min Rain = 0
KCA1 151728Z 23009KT 35/16 A3002 RMK A01 T03510156  RH  031%=      5-min Rain = 0
KCA1 151729Z 22010KT 35/16 A3002 RMK A01 T03510160  RH  032%=      5-min Rain = 0
KCA1 151730Z 22013KT 35/16 A3002 RMK A01 T03520162  RH  033%=      5-min Rain = 0
KCA1 151731Z 23014KT 35/16 A3002 RMK A01 T03520162  RH  032%=      5-min Rain = 0
KCA1 151732Z 23010KT 35/16 A3002 RMK A01 T03520162  RH  032%=      5-min Rain = 0
KCA1 151733Z 24010KT 35/16 A3002 RMK A01 T03520162  RH  033%=      5-min Rain = 0
KCA1 151734Z 23010KT 35/16 A3002 RMK A01 T03520164  RH  033%=      5-min Rain = 0
KCA1 151735Z 24011KT 35/16 A3001 RMK A01 T03530162  RH  032%=      5-min Rain = 0
KCA1 151736Z 24010KT 35/16 A3001 RMK A01 T03530164  RH  033%=      5-min Rain = 0
KCA1 151737Z 24008KT 35/17 A3001 RMK A01 T03540166  RH  033%=      5-min Rain = 0
KCA1 151738Z 24011KT 36/17 A3001 RMK A01 T03580165  RH  032%=      5-min Rain = 0
KCA1 151739Z 23009KT 36/16 A3001 RMK A01 T03580164  RH  032%=      5-min Rain = 0
KCA1 151740Z 23008KT 36/16 A3001 RMK A01 T03580164  RH  032%=      5-min Rain = 0
KCA1 151741Z 21007KT 36/16 A3001 RMK A01 T03560162  RH  032%=      5-min Rain = 0
KCA1 151742Z 23008KT 35/17 A3001 RMK A01 T03540165  RH  033%=      5-min Rain = 0
KCA1 151743Z 23009KT 36/17 A3001 RMK A01 T03580166  RH  032%=      5-min Rain = 0
KCA1 151744Z 21008KT 36/17 A3001 RMK A01 T03590168  RH  032%=      5-min Rain = 0
KCA1 151745Z 21010KT 36/17 A3001 RMK A01 T03600167  RH  032%=      5-min Rain = 0
KCA1 151746Z 20006KT 36/17 A3001 RMK A01 T03600168  RH  032%=      5-min Rain = 0
KCA1 151747Z 21007G12KT 36/17 A30 RMK A01 T03600167  RH  032%=      5-min Rain = 0
KCA1 151748Z 26009KT 36/17 A30 RMK A01 T03600169  RH  032%=      5-min Rain = 0
KCA1 151749Z 25012KT 36/17 A30 RMK A01 T03610169  RH  032%=      5-min Rain = 0
KCA1 151750Z 24011KT 36/17 A30 RMK A01 T03630165  RH  031%=      5-min Rain = 0
KCA1 151751Z 24009KT 36/16 A30 RMK A01 T03620163  RH  031%=      5-min Rain = 0
KCA1 151752Z 24009KT 36/16 A30 RMK A01 T03600163  RH  031%=      5-min Rain = 0
KCA1 151753Z 26008KT 36/16 A30 RMK A01 T03590164  RH  031%=      5-min Rain = 0
KCA1 151754Z 25011G18KT 36/17 A30 RMK A01 T03610167  RH  032%=      5-min Rain = 0
KCA1 151755Z 24015KT 36/17 A30 RMK A01 T03640168  RH  031%=      5-min Rain = 0
KCA1 151756Z 23011G16KT 36/17 A30 RMK A01 T03640165  RH  031%=      5-min Rain = 0
KCA1 151757Z 21013KT 36/17 A30 RMK A01 T03600165  RH  032%=      5-min Rain = 0
KCA1 151758Z 21013KT 36/17 A30 RMK A01 T03590167  RH  032%=      5-min Rain = 0
KCA1 151759Z 21013KT 36/17 A30 RMK A01 T03600166  RH  032%=      5-min Rain = 0
KCA1 151800Z 23011KT 36/17 A30 RMK A01 T03580167  RH  032%=      5-min Rain = 0
KCA1 151801Z 23010KT 36/17 A30 RMK A01 T03610167  RH  032%=      5-min Rain = 0
KCA1 151802Z 21010KT 36/17 A30 RMK A01 T03610168  RH  032%=      5-min Rain = 0
KCA1 151803Z 21011KT 36/17 A30 RMK A01 T03630168  RH  032%=      5-min Rain = 0
KCA1 151804Z 23010G15KT 37/17 A30 RMK A01 T03650169  RH  031%=      5-min Rain = 0
KCA1 151805Z 23013KT 37/17 A30 RMK A01 T03670168  RH  031%=      5-min Rain = 0
KCA1 151806Z 23010KT 37/17 A2999 RMK A01 T03660169  RH  031%=      5-min Rain = 0
KCA1 151807Z 22014KT 37/17 A2999 RMK A01 T03660170  RH  032%=      5-min Rain = 0
KCA1 151808Z 22015KT 37/17 A2999 RMK A01 T03650171  RH  032%=      5-min Rain = 0
KCA1 151809Z 23015KT 37/17 A2999 RMK A01 T03660169  RH  031%=      5-min Rain = 0
KCA1 151810Z 22012KT 36/17 A2999 RMK A01 T03640168  RH  031%=      5-min Rain = 0
KCA1 151811Z 21012KT 36/17 A2999 RMK A01 T03640167  RH  031%=      5-min Rain = 0
KCA1 151812Z 21009KT 36/17 A2999 RMK A01 T03620168  RH  032%=      5-min Rain = 0
KCA1 151813Z 21011KT 36/17 A2999 RMK A01 T03630171  RH  032%=      5-min Rain = 0
KCA1 151814Z 24014KT 37/17 A2999 RMK A01 T03660171  RH  032%=      5-min Rain = 0
KCA1 151815Z 24014KT 37/17 A2999 RMK A01 T03670167  RH  031%=      5-min Rain = 0
KCA1 151816Z 24015KT 37/17 A2999 RMK A01 T03650168  RH  031%=      5-min Rain = 0
KCA1 151817Z 24013KT 37/17 A2999 RMK A01 T03650166  RH  031%=      5-min Rain = 0
KCA1 151818Z 24011KT 36/17 A2999 RMK A01 T03640165  RH  031%=      5-min Rain = 0
KCA1 151819Z 24009KT 36/16 A2999 RMK A01 T03600164  RH  031%=      5-min Rain = 0
KCA1 151820Z 23013KT 36/17 A2999 RMK A01 T03600167  RH  032%=      5-min Rain = 0
KCA1 151821Z 22012KT 36/17 A2999 RMK A01 T03620168  RH  032%=      5-min Rain = 0
KCA1 151822Z 23014KT 36/17 A2999 RMK A01 T03640168  RH  031%=      5-min Rain = 0
KCA1 151823Z 23014KT 36/17 A2999 RMK A01 T03640168  RH  031%=      5-min Rain = 0
KCA1 151824Z 22012KT 36/17 A2999 RMK A01 T03630168  RH  032%=      5-min Rain = 0
KCA1 151825Z 23011KT 36/17 A2999 RMK A01 T03630170  RH  032%=      5-min Rain = 0
KCA1 151826Z 23013KT 36/17 A2999 RMK A01 T03640166  RH  031%=      5-min Rain = 0
KCA1 151827Z 20011KT 36/17 A2999 RMK A01 T03620166  RH  032%=      5-min Rain = 0
KCA1 151828Z 20011G17KT 36/17 A2999 RMK A01 T03610165  RH  031%=      5-min Rain = 0
KCA1 151829Z 23019G24KT 36/17 A2999 RMK A01 T03600167  RH  032%=      5-min Rain = 0
KCA1 151830Z 23014KT 36/17 A2999 RMK A01 T03610168  RH  032%=      5-min Rain = 0
KCA1 151831Z 23011KT 37/17 A2999 RMK A01 T03650171  RH  032%=      5-min Rain = 0
KCA1 151832Z 21014KT 37/17 A2999 RMK A01 T03680169  RH  031%=      5-min Rain = 0
KCA1 151833Z 22013KT 37/17 A2999 RMK A01 T03670166  RH  030%=      5-min Rain = 0
KCA1 151834Z 22008KT 36/16 A2999 RMK A01 T03620163  RH  031%=      5-min Rain = 0
KCA1 151835Z 22008KT 36/17 A2999 RMK A01 T03580165  RH  032%=      5-min Rain = 0
KCA1 151836Z 24009KT 36/17 A2999 RMK A01 T03600166  RH  032%=      5-min Rain = 0
KCA1 151837Z 23007KT 36/17 A2998 RMK A01 T03610165  RH  032%=      5-min Rain = 0
KCA1 151838Z 22011KT 36/17 A2998 RMK A01 T03630169  RH  032%=      5-min Rain = 0
KCA1 151839Z 24014G19KT 37/17 A2998 RMK A01 T03670169  RH  031%=      5-min Rain = 0
KCA1 151840Z 22014KT 37/17 A2998 RMK A01 T03680169  RH  031%=      5-min Rain = 0
KCA1 151841Z 23011KT 37/17 A2998 RMK A01 T03680168  RH  031%=      5-min Rain = 0
KCA1 151842Z 21011KT 37/17 A2998 RMK A01 T03670165  RH  030%=      5-min Rain = 0
KCA1 151843Z 22013KT 37/17 A2998 RMK A01 T03650167  RH  031%=      5-min Rain = 0
KCA1 151844Z 22013KT 36/17 A2998 RMK A01 T03640165  RH  031%=      5-min Rain = 0
KCA1 151845Z 23013G18KT 36/17 A2998 RMK A01 T03630167  RH  031%=      5-min Rain = 0
KCA1 151846Z 22017KT 37/17 A2998 RMK A01 T03660168  RH  031%=      5-min Rain = 0
KCA1 151847Z 22014G19KT 37/16 A2998 RMK A01 T03670164  RH  030%=      5-min Rain = 0
KCA1 151848Z 22013KT 37/16 A2998 RMK A01 T03670164  RH  030%=      5-min Rain = 0
KCA1 151849Z 22013KT 37/16 A2998 RMK A01 T03670163  RH  030%=      5-min Rain = 0
KCA1 151850Z 22012KT 37/16 A2998 RMK A01 T03660161  RH  030%=      5-min Rain = 0
KCA1 151851Z 21010KT 36/16 A2998 RMK A01 T03640164  RH  031%=      5-min Rain = 0
KCA1 151852Z 20009KT 37/16 A2998 RMK A01 T03660163  RH  030%=      5-min Rain = 0
KCA1 151853Z 20011KT 37/16 A2998 RMK A01 T03660162  RH  030%=      5-min Rain = 0
KCA1 151854Z 20011KT 37/16 A2998 RMK A01 T03650163  RH  030%=      5-min Rain = 0
KCA1 151855Z 22015G20KT 37/16 A2998 RMK A01 T03660163  RH  030%=      5-min Rain = 0
KCA1 151856Z 22011KT 37/16 A2998 RMK A01 T03660158  RH  029%=      5-min Rain = 0
KCA1 151857Z 21010KT 36/16 A2998 RMK A01 T03640159  RH  030%=      5-min Rain = 0
KCA1 151858Z 22011KT 37/16 A2998 RMK A01 T03660162  RH  030%=      5-min Rain = 0
KCA1 151859Z 22013KT 37/16 A2998 RMK A01 T03690157  RH  029%=      5-min Rain = 0
KCA1 151900Z 21010KT 37/16 A2998 RMK A01 T03670157  RH  029%=      5-min Rain = 0
KCA1 151901Z 22011KT 37/16 A2998 RMK A01 T03660156  RH  029%=      5-min Rain = 0
KCA1 151902Z 21011KT 36/15 A2998 RMK A01 T03640153  RH  029%=      5-min Rain = 0
KCA1 151903Z 22012KT 36/15 A2998 RMK A01 T03630152  RH  029%=      5-min Rain = 0
KCA1 151904Z 21010KT 36/15 A2998 RMK A01 T03630154  RH  029%=      5-min Rain = 0
KCA1 151905Z 18009KT 36/16 A2998 RMK A01 T03640156  RH  029%=      5-min Rain = 0
KCA1 151906Z 20010KT 37/16 A2998 RMK A01 T03680157  RH  029%=      5-min Rain = 0
KCA1 151907Z 21012KT 37/16 A2997 RMK A01 T03700155  RH  028%=      5-min Rain = 0
KCA1 151908Z 21012KT 37/16 A2998 RMK A01 T03690157  RH  028%=      5-min Rain = 0
KCA1 151909Z 21011KT 37/16 A2998 RMK A01 T03700155  RH  028%=      5-min Rain = 0
KCA1 151910Z 21010KT 37/15 A2997 RMK A01 T03690152  RH  028%=      5-min Rain = 0
KCA1 151911Z 22012KT 37/15 A2997 RMK A01 T03660154  RH  028%=      5-min Rain = 0
KCA1 151912Z 20009KT 37/16 A2997 RMK A01 T03660155  RH  029%=      5-min Rain = 0
KCA1 151913Z 20011KT 37/16 A2997 RMK A01 T03660155  RH  029%=      5-min Rain = 0
KCA1 151914Z 23012KT 37/16 A2997 RMK A01 T03670156  RH  029%=      5-min Rain = 0
KCA1 151915Z 23010KT 37/16 A2997 RMK A01 T03680155  RH  028%=      5-min Rain = 0
KCA1 151916Z 19011G16KT 37/16 A2997 RMK A01 T03720158  RH  028%=      5-min Rain = 0
KCA1 151917Z 21013KT 37/16 A2997 RMK A01 T03740156  RH  027%=      5-min Rain = 0
KCA1 151918Z 21015KT 37/15 A2997 RMK A01 T03730154  RH  027%=      5-min Rain = 0
KCA1 151919Z 20015KT 37/16 A2997 RMK A01 T03710155  RH  028%=      5-min Rain = 0
KCA1 151920Z 21015KT 37/16 A2997 RMK A01 T03720157  RH  028%=      5-min Rain = 0
KCA1 151921Z 20013KT 37/16 A2997 RMK A01 T03710158  RH  028%=      5-min Rain = 0
KCA1 151922Z 21015KT 37/16 A2997 RMK A01 T03710156  RH  028%=      5-min Rain = 0
KCA1 151923Z 21014G19KT 37/16 A2997 RMK A01 T03700155  RH  028%=      5-min Rain = 0
KCA1 151924Z 21013KT 37/15 A2997 RMK A01 T03670154  RH  028%=      5-min Rain = 0
KCA1 151925Z 21010KT 37/16 A2997 RMK A01 T03670157  RH  029%=      5-min Rain = 0
KCA1 151926Z 20012KT 37/16 A2997 RMK A01 T03690157  RH  029%=      5-min Rain = 0
KCA1 151927Z 22010KT 37/16 A2997 RMK A01 T03680160  RH  029%=      5-min Rain = 0
KCA1 151928Z 22010KT 37/16 A2997 RMK A01 T03730163  RH  029%=      5-min Rain = 0
KCA1 151929Z 18013KT 38/16 A2997 RMK A01 T03790161  RH  028%=      5-min Rain = 0
KCA1 151930Z 19014G20KT 38/16 A2997 RMK A01 T03770159  RH  028%=      5-min Rain = 0
KCA1 151931Z 21016KT 37/16 A2997 RMK A01 T03740159  RH  028%=      5-min Rain = 0
KCA1 151932Z 21011KT 37/16 A2997 RMK A01 T03700158  RH  029%=      5-min Rain = 0
KCA1 151933Z 21009KT 37/16 A2997 RMK A01 T03670159  RH  029%=      5-min Rain = 0
KCA1 151934Z 20010KT 37/16 A2997 RMK A01 T03680158  RH  029%=      5-min Rain = 0
KCA1 151935Z 19012KT 37/16 A2997 RMK A01 T03720158  RH  028%=      5-min Rain = 0
KCA1 151936Z 19016KT 38/16 A2997 RMK A01 T03760158  RH  028%=      5-min Rain = 0
KCA1 151937Z 19016KT 38/15 A2997 RMK A01 T03760152  RH  027%=      5-min Rain = 0
KCA1 151938Z 20012KT 37/15 A2997 RMK A01 T03720153  RH  027%=      5-min Rain = 0
KCA1 151939Z 20011KT 37/15 A2997 RMK A01 T03700152  RH  028%=      5-min Rain = 0
KCA1 151940Z 18011KT 37/15 A2997 RMK A01 T03730154  RH  027%=      5-min Rain = 0
KCA1 151941Z 19014KT 38/16 A2996 RMK A01 T03790155  RH  027%=      5-min Rain = 0
KCA1 151942Z 19014KT 38/15 A2996 RMK A01 T03790151  RH  026%=      5-min Rain = 0
KCA1 151943Z 17014KT 38/15 A2996 RMK A01 T03750149  RH  026%=      5-min Rain = 0
KCA1 151944Z 18013G18KT 37/15 A2996 RMK A01 T03740151  RH  027%=      5-min Rain = 0
KCA1 151945Z 19015KT 37/15 A2996 RMK A01 T03740154  RH  027%=      5-min Rain = 0
KCA1 151946Z 19015KT 38/16 A2996 RMK A01 T03750156  RH  027%=      5-min Rain = 0
KCA1 151947Z 18013KT 37/15 A2996 RMK A01 T03740153  RH  027%=      5-min Rain = 0
KCA1 151948Z 18011KT 37/15 A2996 RMK A01 T03740152  RH  027%=      5-min Rain = 0
KCA1 151949Z 18012KT 38/15 A2996 RMK A01 T03750154  RH  027%=      5-min Rain = 0
KCA1 151950Z 19013KT 38/16 A2996 RMK A01 T03760155  RH  027%=      5-min Rain = 0
KCA1 151951Z 17013KT 38/16 A2996 RMK A01 T03770156  RH  027%=      5-min Rain = 0
KCA1 151952Z 19015KT 38/16 A2996 RMK A01 T03770159  RH  028%=      5-min Rain = 0
KCA1 151953Z 19014KT 38/16 A2996 RMK A01 T03780160  RH  028%=      5-min Rain = 0
KCA1 151954Z 20013KT 38/16 A2996 RMK A01 T03770156  RH  027%=      5-min Rain = 0
KCA1 151955Z 20010KT 37/15 A2996 RMK A01 T03740151  RH  027%=      5-min Rain = 0
KCA1 151956Z 20011KT 37/16 A2996 RMK A01 T03720155  RH  028%=      5-min Rain = 0
KCA1 151957Z 18013KT 38/16 A2996 RMK A01 T03760158  RH  028%=      5-min Rain = 0
KCA1 151958Z 19009KT 38/16 A2996 RMK A01 T03790157  RH  027%=      5-min Rain = 0
KCA1 151959Z 18008KT 38/16 A2996 RMK A01 T03790157  RH  027%=      5-min Rain = 0
KCA1 152000Z 21010KT 38/16 A2996 RMK A01 T03780155  RH  027%=      5-min Rain = 0
KCA1 152001Z 21014KT 38/16 A2996 RMK A01 T03770155  RH  027%=      5-min Rain = 0
KCA1 152002Z 20015KT 38/15 A2996 RMK A01 T03760152  RH  027%=      5-min Rain = 0
KCA1 152003Z 20014KT 38/15 A2996 RMK A01 T03750153  RH  027%=      5-min Rain = 0
KCA1 152004Z 20011KT 38/15 A2996 RMK A01 T03760152  RH  027%=      5-min Rain = 0
KCA1 152005Z 20011KT 37/15 A2996 RMK A01 T03740151  RH  027%=      5-min Rain = 0
KCA1 152006Z 20008KT 37/15 A2996 RMK A01 T03710151  RH  027%=      5-min Rain = 0
KCA1 152007Z 20008KT 37/15 A2996 RMK A01 T03740153  RH  027%=      5-min Rain = 0
KCA1 152008Z 20013G18KT 38/16 A2996 RMK A01 T03780159  RH  028%=      5-min Rain = 0
KCA1 152009Z 20009KT 38/15 A2996 RMK A01 T03780151  RH  026%=      5-min Rain = 0
KCA1 152010Z 21010KT 37/15 A2996 RMK A01 T03720153  RH  027%=      5-min Rain = 0
KCA1 152011Z 22011KT 37/15 A2996 RMK A01 T03720154  RH  027%=      5-min Rain = 0
KCA1 152012Z 22010KT 37/15 A2996 RMK A01 T03710154  RH  028%=      5-min Rain = 0
KCA1 152013Z 22012G19KT 37/16 A2995 RMK A01 T03740159  RH  028%=      5-min Rain = 0
KCA1 152014Z 21013KT 38/16 A2995 RMK A01 T03780159  RH  028%=      5-min Rain = 0
KCA1 152015Z 20012G17KT 38/16 A2996 RMK A01 T03790156  RH  027%=      5-min Rain = 0
KCA1 152016Z 19014KT 38/15 A2995 RMK A01 T03800149  RH  026%=      5-min Rain = 0
KCA1 152017Z 20014KT 38/15 A2995 RMK A01 T03790154  RH  026%=      5-min Rain = 0
KCA1 152018Z 19012KT 38/16 A2995 RMK A01 T03770156  RH  027%=      5-min Rain = 0
KCA1 152019Z 18009KT 37/16 A2995 RMK A01 T03740156  RH  028%=      5-min Rain = 0
KCA1 152020Z 18008KT 38/16 A2995 RMK A01 T03760158  RH  028%=      5-min Rain = 0
KCA1 152021Z 21009KT 38/16 A2995 RMK A01 T03800159  RH  027%=      5-min Rain = 0
KCA1 152022Z 22008KT 38/16 A2995 RMK A01 T03790157  RH  027%=      5-min Rain = 0
KCA1 152023Z 22010KT 37/15 A2995 RMK A01 T03740153  RH  027%=      5-min Rain = 0
KCA1 152024Z 22010KT 37/15 A2995 RMK A01 T03720151  RH  027%=      5-min Rain = 0
KCA1 152025Z 23014G21KT 37/16 A2995 RMK A01 T03720156  RH  028%=      5-min Rain = 0
KCA1 152026Z 21017G22KT 37/15 A2994 RMK A01 T03730154  RH  027%=      5-min Rain = 0
KCA1 152027Z 19013G18KT 37/15 A2995 RMK A01 T03730154  RH  027%=      5-min Rain = 0
KCA1 152028Z 21014KT 37/15 A2995 RMK A01 T03730154  RH  027%=      5-min Rain = 0
KCA1 152029Z 21012KT 37/15 A2995 RMK A01 T03730153  RH  027%=      5-min Rain = 0
KCA1 152030Z 20013KT 37/15 A2995 RMK A01 T03720154  RH  028%=      5-min Rain = 0
KCA1 152031Z 19014G19KT 37/16 A2995 RMK A01 T03740156  RH  028%=      5-min Rain = 0
KCA1 152032Z 19015KT 38/15 A2995 RMK A01 T03760152  RH  027%=      5-min Rain = 0
KCA1 152033Z 18014KT 38/15 A2994 RMK A01 T03750152  RH  027%=      5-min Rain = 0
KCA1 152034Z 16013KT 38/15 A2994 RMK A01 T03760153  RH  027%=      5-min Rain = 0
KCA1 152035Z 18010KT 38/15 A2994 RMK A01 T03760153  RH  027%=      5-min Rain = 0
KCA1 152036Z 21013KT 38/16 A2994 RMK A01 T03760156  RH  027%=      5-min Rain = 0
KCA1 152037Z 22010KT 38/15 A2994 RMK A01 T03770153  RH  027%=      5-min Rain = 0
KCA1 152038Z 23011G16KT 38/15 A2994 RMK A01 T03750154  RH  027%=      5-min Rain = 0
KCA1 152039Z 22013KT 38/15 A2994 RMK A01 T03750153  RH  027%=      5-min Rain = 0
KCA1 152040Z 22013KT 38/16 A2994 RMK A01 T03780156  RH  027%=      5-min Rain = 0
KCA1 152041Z 22013KT 38/16 A2994 RMK A01 T03800155  RH  027%=      5-min Rain = 0
KCA1 152042Z 21014KT 38/15 A2994 RMK A01 T03790154  RH  027%=      5-min Rain = 0
KCA1 152043Z 21012KT 38/15 A2994 RMK A01 T03770153  RH  027%=      5-min Rain = 0
KCA1 152044Z 20014KT 37/15 A2994 RMK A01 T03740152  RH  027%=      5-min Rain = 0
KCA1 152045Z 19015KT 38/15 A2994 RMK A01 T03750151  RH  027%=      5-min Rain = 0
KCA1 152046Z 18012KT 38/15 A2994 RMK A01 T03760150  RH  026%=      5-min Rain = 0
KCA1 152047Z 19012KT 38/15 A2994 RMK A01 T03760149  RH  026%=      5-min Rain = 0
KCA1 152048Z 21013KT 38/15 A2994 RMK A01 T03760151  RH  026%=      5-min Rain = 0
KCA1 152049Z 21011KT 38/15 A2994 RMK A01 T03750151  RH  027%=      5-min Rain = 0
KCA1 152050Z 19013KT 38/15 A2994 RMK A01 T03750152  RH  027%=      5-min Rain = 0
KCA1 152051Z 20015KT 38/15 A2994 RMK A01 T03760153  RH  027%=      5-min Rain = 0
KCA1 152052Z 20013KT 38/16 A2994 RMK A01 T03760155  RH  027%=      5-min Rain = 0
KCA1 152053Z 21016KT 38/16 A2994 RMK A01 T03750155  RH  027%=      5-min Rain = 0
KCA1 152054Z 21015KT 38/16 A2994 RMK A01 T03750155  RH  027%=      5-min Rain = 0
KCA1 152055Z 21014KT 38/15 A2994 RMK A01 T03760153  RH  027%=      5-min Rain = 0
KCA1 152056Z 20013KT 38/15 A2994 RMK A01 T03750153  RH  027%=      5-min Rain = 0
KCA1 152057Z 20015KT 37/15 A2993 RMK A01 T03740151  RH  027%=      5-min Rain = 0
KCA1 152058Z 20013KT 37/15 A2993 RMK A01 T03740150  RH  027%=      5-min Rain = 0
KCA1 152059Z 20010KT 37/15 A2993 RMK A01 T03740151  RH  027%=      5-min Rain = 0
KCA1 152100Z 20011KT 38/15 A2993 RMK A01 T03760151  RH  027%=      5-min Rain = 0
KCA1 152101Z 19010KT 38/15 A2993 RMK A01 T03770149  RH  026%=      5-min Rain = 0
KCA1 152102Z 18013KT 38/15 A2993 RMK A01 T03770150  RH  026%=      5-min Rain = 0
KCA1 152103Z 18010KT 38/15 A2993 RMK A01 T03770147  RH  026%=      5-min Rain = 0
KCA1 152104Z 22009KT 38/15 A2993 RMK A01 T03750150  RH  026%=      5-min Rain = 0
KCA1 152105Z 23015KT 38/15 A2993 RMK A01 T03760154  RH  027%=      5-min Rain = 0
KCA1 152106Z 23015KT 38/16 A2993 RMK A01 T03780155  RH  027%=      5-min Rain = 0
KCA1 152107Z 24016KT 38/15 A2993 RMK A01 T03780153  RH  026%=      5-min Rain = 0
KCA1 152108Z 24013KT 38/15 A2993 RMK A01 T03770153  RH  027%=      5-min Rain = 0
KCA1 152109Z 23014KT 38/15 A2993 RMK A01 T03770154  RH  027%=      5-min Rain = 0
KCA1 152110Z 22015KT 38/15 A2993 RMK A01 T03770153  RH  027%=      5-min Rain = 0
KCA1 152111Z 21011KT 38/15 A2993 RMK A01 T03770153  RH  027%=      5-min Rain = 0
KCA1 152112Z 21010KT 38/15 A2993 RMK A01 T03760153  RH  027%=      5-min Rain = 0
KCA1 152113Z 22011KT 38/15 A2993 RMK A01 T03770154  RH  027%=      5-min Rain = 0
KCA1 152114Z 23009KT 38/16 A2993 RMK A01 T03770155  RH  027%=      5-min Rain = 0
KCA1 152115Z 24010KT 38/16 A2993 RMK A01 T03810156  RH  027%=      5-min Rain = 0
KCA1 152116Z 23012KT 38/15 A2992 RMK A01 T03810154  RH  026%=      5-min Rain = 0
KCA1 152117Z 24009KT 38/15 A2992 RMK A01 T03770154  RH  027%=      5-min Rain = 0
KCA1 152118Z 22012KT 38/16 A2992 RMK A01 T03770155  RH  027%=      5-min Rain = 0
KCA1 152119Z 21015KT 38/16 A2992 RMK A01 T03780155  RH  027%=      5-min Rain = 0
KCA1 152120Z 20013KT 38/15 A2992 RMK A01 T03780153  RH  026%=      5-min Rain = 0
KCA1 152121Z 19013KT 38/15 A2992 RMK A01 T03780152  RH  026%=      5-min Rain = 0
KCA1 152122Z 20008KT 38/15 A2992 RMK A01 T03770151  RH  026%=      5-min Rain = 0
KCA1 152123Z 22011KT 38/15 A2992 RMK A01 T03780153  RH  027%=      5-min Rain = 0
KCA1 152124Z 21012KT 38/15 A2992 RMK A01 T03800152  RH  026%=      5-min Rain = 0
KCA1 152125Z 20008KT 38/14 A2992 RMK A01 T03780144  RH  025%=      5-min Rain = 0
KCA1 152126Z 22007KT 38/15 A2992 RMK A01 T03760148  RH  026%=      5-min Rain = 0
KCA1 152127Z 22009KT 38/15 A2992 RMK A01 T03770153  RH  027%=      5-min Rain = 0
KCA1 152128Z 21009KT 38/15 A2992 RMK A01 T03800153  RH  026%=      5-min Rain = 0
KCA1 152129Z 23011KT 38/15 A2992 RMK A01 T03800154  RH  026%=      5-min Rain = 0
KCA1 152130Z 23013KT 38/16 A2992 RMK A01 T03800155  RH  027%=      5-min Rain = 0
KCA1 152131Z 23012KT 38/16 A2992 RMK A01 T03790155  RH  027%=      5-min Rain = 0
KCA1 152132Z 24012KT 38/16 A2992 RMK A01 T03760157  RH  027%=      5-min Rain = 0
KCA1 152133Z 22009KT 38/16 A2992 RMK A01 T03770157  RH  027%=      5-min Rain = 0
KCA1 152134Z 20011KT 38/16 A2992 RMK A01 T03800158  RH  027%=      5-min Rain = 0
KCA1 152135Z 21011KT 38/15 A2992 RMK A01 T03810154  RH  026%=      5-min Rain = 0
KCA1 152136Z 20009KT 38/15 A2992 RMK A01 T03810153  RH  026%=      5-min Rain = 0
KCA1 152137Z 21011KT 38/15 A2991 RMK A01 T03810152  RH  026%=      5-min Rain = 0
KCA1 152138Z 21011KT 38/15 A2991 RMK A01 T03790153  RH  026%=      5-min Rain = 0
KCA1 152139Z 21011KT 38/15 A2991 RMK A01 T03780154  RH  027%=      5-min Rain = 0
KCA1 152140Z 21009KT 38/15 A2991 RMK A01 T03780153  RH  026%=      5-min Rain = 0
KCA1 152141Z 22009KT 38/16 A2991 RMK A01 T03790157  RH  027%=      5-min Rain = 0
KCA1 152142Z 22010KT 38/16 A2991 RMK A01 T03820157  RH  027%=      5-min Rain = 0
KCA1 152143Z 24012KT 38/16 A2991 RMK A01 T03820155  RH  026%=      5-min Rain = 0
KCA1 152144Z 24013KT 38/16 A2991 RMK A01 T03820156  RH  026%=      5-min Rain = 0
KCA1 152145Z 24014KT 38/16 A2991 RMK A01 T03790155  RH  027%=      5-min Rain = 0
KCA1 152146Z 24010KT 38/15 A2991 RMK A01 T03760153  RH  027%=      5-min Rain = 0
KCA1 152147Z 24010KT 38/15 A2991 RMK A01 T03750151  RH  027%=      5-min Rain = 0
KCA1 152148Z 25012G17KT 38/16 A2991 RMK A01 T03750155  RH  027%=      5-min Rain = 0
KCA1 152149Z 25016KT 38/16 A2991 RMK A01 T03770161  RH  028%=      5-min Rain = 0
KCA1 152150Z 23013KT 38/16 A2991 RMK A01 T03780162  RH  028%=      5-min Rain = 0
KCA1 152151Z 22010KT 38/16 A2991 RMK A01 T03780161  RH  028%=      5-min Rain = 0
KCA1 152152Z 21008KT 38/16 A2991 RMK A01 T03770161  RH  028%=      5-min Rain = 0
KCA1 152153Z 22012G17KT 38/16 A2991 RMK A01 T03780164  RH  028%=      5-min Rain = 0
KCA1 152154Z 22015KT 38/16 A2991 RMK A01 T03810161  RH  027%=      5-min Rain = 0
KCA1 152155Z 22012KT 38/16 A299 RMK A01 T03800159  RH  027%=      5-min Rain = 0
KCA1 152156Z 21010KT 38/16 A2991 RMK A01 T03780161  RH  028%=      5-min Rain = 0
KCA1 152157Z 18013G18KT 38/16 A299 RMK A01 T03800162  RH  028%=      5-min Rain = 0
KCA1 152158Z 18011G17KT 38/16 A299 RMK A01 T03800157  RH  027%=      5-min Rain = 0
KCA1 152159Z 22007KT 38/16 A299 RMK A01 T03750158  RH  028%=      5-min Rain = 0
KCA1 152200Z 23007KT 38/16 A299 RMK A01 T03760158  RH  028%=      5-min Rain = 0
KCA1 152201Z 22008KT 37/16 A299 RMK A01 T03740161  RH  028%=      5-min Rain = 0
KCA1 152202Z 22012G18KT 38/16 A299 RMK A01 T03760164  RH  029%=      5-min Rain = 0
KCA1 152203Z 21013KT 38/16 A299 RMK A01 T03790163  RH  028%=      5-min Rain = 0
KCA1 152204Z 20016KT 38/16 A299 RMK A01 T03800164  RH  028%=      5-min Rain = 0
KCA1 152205Z 20015KT 38/16 A299 RMK A01 T03790162  RH  028%=      5-min Rain = 0
KCA1 152206Z 21013KT 38/16 A299 RMK A01 T03770160  RH  028%=      5-min Rain = 0
KCA1 152207Z 20012KT 38/16 A299 RMK A01 T03760160  RH  028%=      5-min Rain = 0
KCA1 152208Z 20011KT 38/16 A299 RMK A01 T03760159  RH  028%=      5-min Rain = 0
KCA1 152209Z 21011KT 38/16 A299 RMK A01 T03750160  RH  028%=      5-min Rain = 0
KCA1 152210Z 21011KT 38/16 A299 RMK A01 T03750160  RH  028%=      5-min Rain = 0
KCA1 152211Z 20013KT 38/16 A299 RMK A01 T03760163  RH  029%=      5-min Rain = 0
KCA1 152212Z 18012KT 38/16 A299 RMK A01 T03770162  RH  028%=      5-min Rain = 0
KCA1 152213Z 18012KT 38/16 A299 RMK A01 T03780161  RH  028%=      5-min Rain = 0
KCA1 152214Z 19010KT 38/16 A299 RMK A01 T03790160  RH  028%=      5-min Rain = 0
KCA1 152215Z 19009KT 38/16 A299 RMK A01 T03790162  RH  028%=      5-min Rain = 0
KCA1 152216Z 21012KT 38/17 A299 RMK A01 T03810165  RH  028%=      5-min Rain = 0
KCA1 152217Z 21011KT 38/16 A299 RMK A01 T03810161  RH  027%=      5-min Rain = 0
KCA1 152218Z 21012KT 38/16 A299 RMK A01 T03790160  RH  028%=      5-min Rain = 0
KCA1 152219Z 20015KT 38/16 A299 RMK A01 T03770160  RH  028%=      5-min Rain = 0
KCA1 152220Z 21013KT 38/16 A299 RMK A01 T03770161  RH  028%=      5-min Rain = 0
KCA1 152221Z 21011KT 38/16 A299 RMK A01 T03770162  RH  028%=      5-min Rain = 0
KCA1 152222Z 21010KT 38/16 A299 RMK A01 T03770164  RH  029%=      5-min Rain = 0
KCA1 152223Z 21010KT 38/16 A299 RMK A01 T03780162  RH  028%=      5-min Rain = 0
KCA1 152224Z 22009KT 38/16 A299 RMK A01 T03800163  RH  028%=      5-min Rain = 0
KCA1 152225Z 23014KT 38/16 A299 RMK A01 T03810162  RH  028%=      5-min Rain = 0
KCA1 152226Z 23014G20KT 38/16 A299 RMK A01 T03800156  RH  027%=      5-min Rain = 0
KCA1 152227Z 23012G17KT 38/16 A299 RMK A01 T03770158  RH  027%=      5-min Rain = 0
KCA1 152228Z 24015KT 38/16 A299 RMK A01 T03790160  RH  027%=      5-min Rain = 0
KCA1 152229Z 24016KT 38/16 A299 RMK A01 T03800156  RH  027%=      5-min Rain = 0
KCA1 152230Z 24014G19KT 38/16 A299 RMK A01 T03780155  RH  027%=      5-min Rain = 0
KCA1 152231Z 24014KT 38/15 A299 RMK A01 T03780153  RH  026%=      5-min Rain = 0
KCA1 152232Z 24012KT 38/15 A2989 RMK A01 T03770154  RH  027%=      5-min Rain = 0
KCA1 152233Z 24012KT 38/15 A299 RMK A01 T03770153  RH  027%=      5-min Rain = 0
KCA1 152234Z 24012KT 38/15 A2989 RMK A01 T03780154  RH  027%=      5-min Rain = 0
KCA1 152235Z 23011KT 38/16 A2989 RMK A01 T03780155  RH  027%=      5-min Rain = 0
KCA1 152236Z 22012KT 38/16 A2989 RMK A01 T03780157  RH  027%=      5-min Rain = 0
KCA1 152237Z 22015KT 38/16 A2989 RMK A01 T03770160  RH  028%=      5-min Rain = 0
KCA1 152238Z 21012KT 38/16 A2989 RMK A01 T03770162  RH  028%=      5-min Rain = 0
KCA1 152239Z 20011KT 38/16 A2989 RMK A01 T03770163  RH  028%=      5-min Rain = 0
KCA1 152240Z 21013KT 38/16 A2989 RMK A01 T03760164  RH  029%=      5-min Rain = 0
KCA1 152241Z 20011KT 38/16 A2989 RMK A01 T03750164  RH  029%=      5-min Rain = 0
KCA1 152242Z 19008KT 37/16 A2989 RMK A01 T03730163  RH  029%=      5-min Rain = 0
KCA1 152243Z 20008KT 37/17 A2989 RMK A01 T03740167  RH  030%=      5-min Rain = 0
KCA1 152244Z 21013KT 38/17 A2989 RMK A01 T03760165  RH  029%=      5-min Rain = 0
KCA1 152245Z 20009KT 38/17 A2989 RMK A01 T03770165  RH  029%=      5-min Rain = 0
KCA1 152246Z 21008KT 38/17 A2989 RMK A01 T03770166  RH  029%=      5-min Rain = 0
KCA1 152247Z 21008KT 38/17 A2989 RMK A01 T03780168  RH  029%=      5-min Rain = 0
KCA1 152248Z 20007KT 38/17 A2989 RMK A01 T03790167  RH  029%=      5-min Rain = 0
KCA1 152249Z 20008KT 38/17 A2989 RMK A01 T03800169  RH  029%=      5-min Rain = 0
KCA1 152250Z 21009KT 38/17 A2989 RMK A01 T03810167  RH  029%=      5-min Rain = 0
KCA1 152251Z 20010KT 38/16 A2989 RMK A01 T03780164  RH  028%=      5-min Rain = 0
KCA1 152252Z 21012KT 38/16 A2989 RMK A01 T03770161  RH  028%=      5-min Rain = 0
KCA1 152253Z 20013KT 38/16 A2989 RMK A01 T03770162  RH  028%=      5-min Rain = 0
KCA1 152254Z 19012KT 38/17 A2989 RMK A01 T03770166  RH  029%=      5-min Rain = 0
KCA1 152255Z 18012G17KT 38/17 A2989 RMK A01 T03750171  RH  030%=      5-min Rain = 0
KCA1 152256Z 20012KT 37/17 A2989 RMK A01 T03740172  RH  031%=      5-min Rain = 0
KCA1 152257Z 20010KT 38/17 A2989 RMK A01 T03750172  RH  030%=      5-min Rain = 0
KCA1 152258Z 20010KT 38/18 A2989 RMK A01 T03750175  RH  031%=      5-min Rain = 0
KCA1 152259Z 20014KT 38/17 A2989 RMK A01 T03760174  RH  031%=      5-min Rain = 0
KCA1 152300Z 19008KT 37/17 A2989 RMK A01 T03740171  RH  030%=      5-min Rain = 0
KCA1 152301Z 19010KT 37/17 A2989 RMK A01 T03730172  RH  031%=      5-min Rain = 0
KCA1 152302Z 19012KT 37/17 A2989 RMK A01 T03740174  RH  031%=      5-min Rain = 0
KCA1 152303Z 19011KT 38/18 A2989 RMK A01 T03750175  RH  031%=      5-min Rain = 0
KCA1 152304Z 18013KT 38/18 A2989 RMK A01 T03760176  RH  031%=      5-min Rain = 0
KCA1 152305Z 17014KT 38/18 A2989 RMK A01 T03760178  RH  031%=      5-min Rain = 0
KCA1 152306Z 16016KT 38/18 A2989 RMK A01 T03750177  RH  031%=      5-min Rain = 0
KCA1 152307Z 17019KT 37/18 A2989 RMK A01 T03720175  RH  032%=      5-min Rain = 0
KCA1 152308Z 17016KT 37/18 A2989 RMK A01 T03690175  RH  032%=      5-min Rain = 0
KCA1 152309Z 17013KT 37/18 A2989 RMK A01 T03690177  RH  032%=      5-min Rain = 0
KCA1 152310Z 18013KT 37/18 A2989 RMK A01 T03700178  RH  032%=      5-min Rain = 0
KCA1 152311Z 18011KT 37/18 A2989 RMK A01 T03700177  RH  032%=      5-min Rain = 0
KCA1 152312Z 18010KT 37/18 A2989 RMK A01 T03710178  RH  032%=      5-min Rain = 0
KCA1 152313Z 18013KT 37/18 A2989 RMK A01 T03720178  RH  032%=      5-min Rain = 0
KCA1 152314Z 17014G19KT 37/18 A2989 RMK A01 T03720178  RH  032%=      5-min Rain = 0
KCA1 152315Z 17017KT 37/18 A2989 RMK A01 T03710179  RH  032%=      5-min Rain = 0
KCA1 152316Z 17017KT 37/18 A2989 RMK A01 T03700179  RH  033%=      5-min Rain = 0
KCA1 152317Z 17015KT 37/18 A2988 RMK A01 T03670178  RH  033%=      5-min Rain = 0
KCA1 152318Z 16015KT 37/18 A2988 RMK A01 T03670180  RH  033%=      5-min Rain = 0
KCA1 152319Z 16017KT 37/18 A2988 RMK A01 T03660178  RH  033%=      5-min Rain = 0
KCA1 152320Z 17012KT 37/18 A2988 RMK A01 T03650179  RH  033%=      5-min Rain = 0
KCA1 152321Z 17012KT 37/18 A2989 RMK A01 T03660180  RH  034%=      5-min Rain = 0
KCA1 152322Z 17014KT 37/18 A2988 RMK A01 T03670180  RH  033%=      5-min Rain = 0
KCA1 152323Z 17016KT 37/18 A2988 RMK A01 T03670179  RH  033%=      5-min Rain = 0
KCA1 152324Z 17014KT 37/18 A2988 RMK A01 T03650179  RH  033%=      5-min Rain = 0
KCA1 152325Z 18013KT 37/18 A2988 RMK A01 T03650179  RH  034%=      5-min Rain = 0
KCA1 152326Z 17012KT 37/18 A2988 RMK A01 T03650180  RH  034%=      5-min Rain = 0
KCA1 152327Z 18015KT 36/18 A2988 RMK A01 T03640180  RH  034%=      5-min Rain = 0
KCA1 152328Z 17013KT 37/18 A2988 RMK A01 T03650181  RH  034%=      5-min Rain = 0
KCA1 152329Z 17014KT 37/18 A2988 RMK A01 T03650181  RH  034%=      5-min Rain = 0
KCA1 152330Z 17014G19KT 37/18 A2988 RMK A01 T03650181  RH  034%=      5-min Rain = 0
KCA1 152331Z 18013KT 37/18 A2988 RMK A01 T03650182  RH  034%=      5-min Rain = 0
KCA1 152332Z 17012KT 36/18 A2988 RMK A01 T03640181  RH  034%=      5-min Rain = 0
KCA1 152333Z 17013KT 36/18 A2988 RMK A01 T03640183  RH  035%=      5-min Rain = 0
KCA1 152334Z 17017KT 36/18 A2988 RMK A01 T03620182  RH  035%=      5-min Rain = 0
KCA1 152335Z 18015KT 36/18 A2988 RMK A01 T03590180  RH  035%=      5-min Rain = 0
KCA1 152336Z 18015KT 36/18 A2988 RMK A01 T03590182  RH  035%=      5-min Rain = 0
KCA1 152337Z 18014KT 36/18 A2988 RMK A01 T03600184  RH  036%=      5-min Rain = 0
KCA1 152338Z 17013KT 36/18 A2988 RMK A01 T03600184  RH  036%=      5-min Rain = 0
KCA1 152339Z 17013KT 36/18 A2988 RMK A01 T03610184  RH  035%=      5-min Rain = 0
KCA1 152340Z 18013G19KT 36/19 A2988 RMK A01 T03610185  RH  036%=      5-min Rain = 0
KCA1 152341Z 18015KT 36/18 A2988 RMK A01 T03610183  RH  035%=      5-min Rain = 0
KCA1 152342Z 17015KT 36/18 A2988 RMK A01 T03610183  RH  035%=      5-min Rain = 0
KCA1 152343Z 17016KT 36/18 A2988 RMK A01 T03600182  RH  035%=      5-min Rain = 0
KCA1 152344Z 17016KT 36/18 A2988 RMK A01 T03600182  RH  035%=      5-min Rain = 0
KCA1 152345Z 18015G20KT 36/18 A2988 RMK A01 T03590182  RH  035%=      5-min Rain = 0
KCA1 152346Z 18013KT 36/18 A2988 RMK A01 T03590183  RH  035%=      5-min Rain = 0
KCA1 152347Z 17015G20KT 36/18 A2988 RMK A01 T03590184  RH  036%=      5-min Rain = 0
KCA1 152348Z 17016KT 36/18 A2988 RMK A01 T03590184  RH  036%=      5-min Rain = 0
KCA1 152349Z 17018KT 36/18 A2988 RMK A01 T03580182  RH  036%=      5-min Rain = 0
KCA1 152350Z 17018KT 36/18 A2988 RMK A01 T03560181  RH  036%=      5-min Rain = 0
KCA1 152351Z 17014KT 36/18 A2988 RMK A01 T03550182  RH  036%=      5-min Rain = 0
KCA1 152352Z 16013KT 36/18 A2988 RMK A01 T03550183  RH  036%=      5-min Rain = 0
KCA1 152353Z 17012KT 36/18 A2988 RMK A01 T03550184  RH  037%=      5-min Rain = 0
KCA1 152354Z 16013KT 36/18 A2988 RMK A01 T03560184  RH  036%=      5-min Rain = 0
KCA1 152355Z 17012KT 36/19 A2988 RMK A01 T03560185  RH  037%=      5-min Rain = 0
KCA1 152356Z 16015KT 36/19 A2988 RMK A01 T03560185  RH  036%=      5-min Rain = 0
KCA1 152357Z 17017KT 36/18 A2988 RMK A01 T03550184  RH  036%=      5-min Rain = 0
KCA1 152358Z 17015KT 36/18 A2988 RMK A01 T03550184  RH  037%=      5-min Rain = 0
KCA1 152359Z 16017KT 36/18 A2988 RMK A01 T03550184  RH  037%=      5-min Rain = 0
KCA1 160000Z 17016KT 36/18 A2988 RMK A01 T03550184  RH  037%=      5-min Rain = 0
KCA1 160001Z 17017KT 35/18 A2988 RMK A01 T03540183  RH  037%=      5-min Rain = 0
KCA1 160002Z 17016G21KT 35/18 A2988 RMK A01 T03540183  RH  037%=      5-min Rain = 0
KCA1 160003Z 17018KT 35/18 A2988 RMK A01 T03530182  RH  037%=      5-min Rain = 0
KCA1 160004Z 18015KT 35/18 A2988 RMK A01 T03520183  RH  037%=      5-min Rain = 0
KCA1 160005Z 18015KT 35/18 A2988 RMK A01 T03520182  RH  037%=      5-min Rain = 0
KCA1 160006Z 17014KT 35/18 A2988 RMK A01 T03510183  RH  037%=      5-min Rain = 0
KCA1 160007Z 17015KT 35/18 A2988 RMK A01 T03510183  RH  037%=      5-min Rain = 0
KCA1 160008Z 17013KT 35/18 A2988 RMK A01 T03510183  RH  037%=      5-min Rain = 0
KCA1 160009Z 16013KT 35/18 A2988 RMK A01 T03510184  RH  037%=      5-min Rain = 0
KCA1 160010Z 16014KT 35/18 A2988 RMK A01 T03510184  RH  037%=      5-min Rain = 0
KCA1 160011Z 16017KT 35/18 A2988 RMK A01 T03510183  RH  037%=      5-min Rain = 0
KCA1 160012Z 17017KT 35/18 A2988 RMK A01 T03500183  RH  037%=      5-min Rain = 0
KCA1 160013Z 16017KT 35/18 A2988 RMK A01 T03490183  RH  037%=      5-min Rain = 0
KCA1 160014Z 17014KT 35/18 A2988 RMK A01 T03490183  RH  038%=      5-min Rain = 0
KCA1 160015Z 17015KT 35/18 A2988 RMK A01 T03490184  RH  038%=      5-min Rain = 0
KCA1 160016Z 17013KT 35/18 A2988 RMK A01 T03490183  RH  038%=      5-min Rain = 0
KCA1 160017Z 17016KT 35/18 A2988 RMK A01 T03480183  RH  038%=      5-min Rain = 0
KCA1 160018Z 17016KT 35/18 A2988 RMK A01 T03480182  RH  037%=      5-min Rain = 0
KCA1 160019Z 16017KT 35/18 A2988 RMK A01 T03480181  RH  037%=      5-min Rain = 0
KCA1 160020Z 17015KT 35/18 A2988 RMK A01 T03470181  RH  038%=      5-min Rain = 0
KCA1 160021Z 17016KT 35/18 A2988 RMK A01 T03470182  RH  038%=      5-min Rain = 0
KCA1 160022Z 17016KT 35/18 A2988 RMK A01 T03470181  RH  038%=      5-min Rain = 0
KCA1 160023Z 17013KT 35/18 A2988 RMK A01 T03460182  RH  038%=      5-min Rain = 0
KCA1 160024Z 17014G20KT 35/18 A2988 RMK A01 T03460182  RH  038%=      5-min Rain = 0
KCA1 160025Z 17017KT 35/18 A2988 RMK A01 T03460181  RH  038%=      5-min Rain = 0
KCA1 160026Z 17018KT 35/18 A2988 RMK A01 T03450180  RH  038%=      5-min Rain = 0
KCA1 160027Z 17014KT 35/18 A2988 RMK A01 T03450180  RH  038%=      5-min Rain = 0
KCA1 160028Z 16016KT 35/18 A2988 RMK A01 T03450182  RH  038%=      5-min Rain = 0
KCA1 160029Z 17018KT 35/18 A2988 RMK A01 T03450181  RH  038%=      5-min Rain = 0
KCA1 160030Z 16013KT 34/18 A2988 RMK A01 T03440181  RH  038%=      5-min Rain = 0
KCA1 160031Z 16011KT 34/18 A2988 RMK A01 T03440182  RH  038%=      5-min Rain = 0
KCA1 160032Z 17016G22KT 34/18 A2988 RMK A01 T03440182  RH  038%=      5-min Rain = 0
KCA1 160033Z 17017G22KT 34/18 A2988 RMK A01 T03430180  RH  038%=      5-min Rain = 0
KCA1 160034Z 17016KT 34/18 A2988 RMK A01 T03430180  RH  038%=      5-min Rain = 0
KCA1 160035Z 16014G19KT 34/18 A2988 RMK A01 T03420181  RH  038%=      5-min Rain = 0
KCA1 160036Z 16015KT 34/18 A2988 RMK A01 T03420181  RH  039%=      5-min Rain = 0
KCA1 160037Z 17012KT 34/18 A2988 RMK A01 T03420182  RH  039%=      5-min Rain = 0
KCA1 160038Z 16014KT 34/18 A2988 RMK A01 T03410182  RH  039%=      5-min Rain = 0
KCA1 160039Z 16015G20KT 34/18 A2988 RMK A01 T03410183  RH  039%=      5-min Rain = 0
KCA1 160040Z 16014KT 34/18 A2988 RMK A01 T03400182  RH  039%=      5-min Rain = 0
KCA1 160041Z 16016KT 34/18 A2988 RMK A01 T03390182  RH  040%=      5-min Rain = 0
KCA1 160042Z 17014KT 34/18 A2988 RMK A01 T03380183  RH  040%=      5-min Rain = 0
KCA1 160043Z 16011KT 34/18 A2988 RMK A01 T03380183  RH  040%=      5-min Rain = 0
KCA1 160044Z 17012KT 34/18 A2988 RMK A01 T03370184  RH  040%=      5-min Rain = 0
KCA1 160045Z 16012KT 34/18 A2988 RMK A01 T03370184  RH  040%=      5-min Rain = 0
KCA1 160046Z 16014KT 34/18 A2988 RMK A01 T03360183  RH  040%=      5-min Rain = 0
KCA1 160047Z 16012KT 34/18 A2988 RMK A01 T03360183  RH  040%=      5-min Rain = 0
KCA1 160048Z 16013KT 34/18 A2988 RMK A01 T03360184  RH  041%=      5-min Rain = 0
KCA1 160049Z 16016KT 34/18 A2988 RMK A01 T03350183  RH  041%=      5-min Rain = 0
KCA1 160050Z 16015KT 34/18 A2988 RMK A01 T03350183  RH  041%=      5-min Rain = 0
KCA1 160051Z 16014KT 33/18 A2988 RMK A01 T03340183  RH  041%=      5-min Rain = 0
KCA1 160052Z 16013KT 33/18 A2988 RMK A01 T03340184  RH  041%=      5-min Rain = 0
KCA1 160053Z 16013KT 33/18 A2988 RMK A01 T03330184  RH  041%=      5-min Rain = 0
KCA1 160054Z 16014KT 33/18 A2988 RMK A01 T03320184  RH  042%=      5-min Rain = 0
KCA1 160055Z 16015KT 33/18 A2988 RMK A01 T03320184  RH  042%=      5-min Rain = 0
KCA1 160056Z 16016KT 33/18 A2988 RMK A01 T03310183  RH  042%=      5-min Rain = 0
KCA1 160057Z 16013KT 33/18 A2988 RMK A01 T03310184  RH  042%=      5-min Rain = 0
KCA1 160058Z 16013KT 33/18 A2988 RMK A01 T03310184  RH  042%=      5-min Rain = 0
KCA1 160059Z 16013KT 33/19 A2988 RMK A01 T03310185  RH  042%=      5-min Rain = 0
KCA1 160100Z 16014KT 33/18 A2988 RMK A01 T03300184  RH  042%=      5-min Rain = 0
KCA1 160101Z 16013KT 33/19 A2989 RMK A01 T03300185  RH  042%=      5-min Rain = 0
KCA1 160102Z 16012KT 33/19 A2989 RMK A01 T03290185  RH  043%=      5-min Rain = 0
KCA1 160103Z 16014KT 33/19 A2989 RMK A01 T03280185  RH  043%=      5-min Rain = 0
KCA1 160104Z 16015KT 33/19 A2989 RMK A01 T03280186  RH  043%=      5-min Rain = 0
KCA1 160105Z 16011KT 33/19 A2989 RMK A01 T03270186  RH  043%=      5-min Rain = 0
KCA1 160106Z 15012KT 33/19 A2989 RMK A01 T03270186  RH  043%=      5-min Rain = 0
KCA1 160107Z 15014KT 33/19 A2989 RMK A01 T03260186  RH  044%=      5-min Rain = 0
KCA1 160108Z 15012KT 33/19 A2989 RMK A01 T03250186  RH  044%=      5-min Rain = 0
KCA1 160109Z 16013KT 33/19 A2989 RMK A01 T03250186  RH  044%=      5-min Rain = 0
KCA1 160110Z 16011KT 32/19 A2989 RMK A01 T03240187  RH  044%=      5-min Rain = 0
KCA1 160111Z 16013KT 32/19 A2989 RMK A01 T03230187  RH  044%=      5-min Rain = 0
KCA1 160112Z 16012KT 32/19 A2989 RMK A01 T03230187  RH  044%=      5-min Rain = 0
KCA1 160113Z 15012KT 32/19 A2989 RMK A01 T03220187  RH  045%=      5-min Rain = 0
KCA1 160114Z 16012KT 32/19 A2989 RMK A01 T03220187  RH  045%=      5-min Rain = 0
KCA1 160115Z 16012KT 32/19 A2989 RMK A01 T03210187  RH  045%=      5-min Rain = 0
KCA1 160116Z 16011KT 32/19 A2989 RMK A01 T03210187  RH  045%=      5-min Rain = 0
KCA1 160117Z 16011KT 32/19 A2989 RMK A01 T03200187  RH  045%=      5-min Rain = 0
KCA1 160118Z 16010KT 32/19 A2989 RMK A01 T03200187  RH  045%=      5-min Rain = 0
KCA1 160119Z 16008KT 32/19 A2989 RMK A01 T03190188  RH  046%=      5-min Rain = 0
KCA1 160120Z 16010KT 32/19 A2989 RMK A01 T03180188  RH  046%=      5-min Rain = 0
KCA1 160121Z 15010KT 32/19 A2989 RMK A01 T03170188  RH  046%=      5-min Rain = 0
KCA1 160122Z 15010KT 32/19 A2989 RMK A01 T03170188  RH  046%=      5-min Rain = 0
KCA1 160123Z 15010KT 32/19 A2989 RMK A01 T03170188  RH  046%=      5-min Rain = 0
KCA1 160124Z 16010KT 32/19 A2989 RMK A01 T03160188  RH  047%=      5-min Rain = 0
KCA1 160125Z 16010KT 32/19 A2989 RMK A01 T03160188  RH  047%=      5-min Rain = 0
KCA1 160126Z 15009KT 32/19 A2989 RMK A01 T03160189  RH  047%=      5-min Rain = 0
KCA1 160127Z 15011KT 32/19 A2989 RMK A01 T03160188  RH  047%=      5-min Rain = 0
KCA1 160128Z 15011KT 32/19 A2989 RMK A01 T03160188  RH  047%=      5-min Rain = 0
KCA1 160129Z 15010KT 32/19 A2989 RMK A01 T03150188  RH  047%=      5-min Rain = 0
KCA1 160130Z 15010KT 32/19 A2989 RMK A01 T03150189  RH  047%=      5-min Rain = 0
KCA1 160131Z 15008KT 31/19 A2989 RMK A01 T03140188  RH  047%=      5-min Rain = 0
KCA1 160132Z 15010KT 31/19 A2989 RMK A01 T03130188  RH  048%=      5-min Rain = 0
KCA1 160133Z 15009KT 31/19 A2989 RMK A01 T03120188  RH  048%=      5-min Rain = 0
KCA1 160134Z 15010KT 31/19 A2989 RMK A01 T03120188  RH  048%=      5-min Rain = 0
KCA1 160135Z 15010KT 31/19 A2989 RMK A01 T03120188  RH  048%=      5-min Rain = 0
KCA1 160136Z 15010KT 31/19 A2989 RMK A01 T03120189  RH  048%=      5-min Rain = 0
KCA1 160137Z 15012KT 31/19 A2989 RMK A01 T03110189  RH  048%=      5-min Rain = 0
KCA1 160138Z 15011KT 31/19 A2989 RMK A01 T03110189  RH  048%=      5-min Rain = 0
KCA1 160139Z 15010KT 31/19 A2989 RMK A01 T03110189  RH  048%=      5-min Rain = 0
KCA1 160140Z 15010KT 31/19 A2989 RMK A01 T03110189  RH  048%=      5-min Rain = 0
KCA1 160141Z 15013KT 31/19 A2989 RMK A01 T03100189  RH  049%=      5-min Rain = 0
KCA1 160142Z 15012KT 31/19 A2989 RMK A01 T03100189  RH  048%=      5-min Rain = 0
KCA1 160143Z 14011KT 31/19 A2989 RMK A01 T03110189  RH  048%=      5-min Rain = 0
KCA1 160144Z 14011KT 31/19 A2989 RMK A01 T03100189  RH  048%=      5-min Rain = 0
KCA1 160145Z 14010KT 31/19 A2989 RMK A01 T03100189  RH  049%=      5-min Rain = 0
KCA1 160146Z 14010KT 31/19 A2989 RMK A01 T03090190  RH  049%=      5-min Rain = 0
KCA1 160147Z 14011KT 31/19 A2989 RMK A01 T03080189  RH  049%=      5-min Rain = 0
KCA1 160148Z 14011KT 31/19 A2989 RMK A01 T03080190  RH  049%=      5-min Rain = 0
KCA1 160149Z 14010KT 31/19 A2989 RMK A01 T03080190  RH  049%=      5-min Rain = 0
KCA1 160150Z 13009KT 31/19 A2989 RMK A01 T03070190  RH  050%=      5-min Rain = 0
KCA1 160151Z 14009KT 31/19 A2989 RMK A01 T03070190  RH  050%=      5-min Rain = 0
KCA1 160152Z 14009KT 31/19 A299 RMK A01 T03060190  RH  050%=      5-min Rain = 0
KCA1 160153Z 14010KT 31/19 A299 RMK A01 T03050190  RH  050%=      5-min Rain = 0
KCA1 160154Z 14009KT 31/19 A299 RMK A01 T03050191  RH  050%=      5-min Rain = 0
KCA1 160155Z 14012KT 31/19 A299 RMK A01 T03050191  RH  051%=      5-min Rain = 0
KCA1 160156Z 14012KT 30/19 A299 RMK A01 T03040190  RH  051%=      5-min Rain = 0
KCA1 160157Z 14011KT 30/19 A299 RMK A01 T03040190  RH  051%=      5-min Rain = 0
KCA1 160158Z 14012KT 30/19 A299 RMK A01 T03040191  RH  051%=      5-min Rain = 0
KCA1 160159Z 14011KT 31/19 A299 RMK A01 T03050191  RH  051%=      5-min Rain = 0
KCA1 160200Z 14010KT 30/19 A299 RMK A01 T03040191  RH  051%=      5-min Rain = 0
KCA1 160201Z 14010KT 30/19 A299 RMK A01 T03030191  RH  051%=      5-min Rain = 0
KCA1 160202Z 14010KT 30/19 A299 RMK A01 T03030191  RH  051%=      5-min Rain = 0
KCA1 160203Z 14010KT 30/19 A299 RMK A01 T03030191  RH  051%=      5-min Rain = 0
KCA1 160204Z 14012KT 30/19 A299 RMK A01 T03020191  RH  051%=      5-min Rain = 0
KCA1 160205Z 14011KT 30/19 A299 RMK A01 T03010191  RH  052%=      5-min Rain = 0
KCA1 160206Z 14010KT 30/19 A299 RMK A01 T03010191  RH  052%=      5-min Rain = 0
KCA1 160207Z 14010KT 30/19 A299 RMK A01 T03010191  RH  052%=      5-min Rain = 0
KCA1 160208Z 14011KT 30/19 A299 RMK A01 T03010191  RH  052%=      5-min Rain = 0
KCA1 160209Z 14010KT 30/19 A299 RMK A01 T03000191  RH  052%=      5-min Rain = 0
KCA1 160210Z 14012KT 30/19 A299 RMK A01 T03000191  RH  052%=      5-min Rain = 0
KCA1 160211Z 14011KT 30/19 A299 RMK A01 T02990191  RH  052%=      5-min Rain = 0
KCA1 160212Z 14011KT 30/19 A299 RMK A01 T02990191  RH  052%=      5-min Rain = 0
KCA1 160213Z 14011KT 30/19 A299 RMK A01 T02990191  RH  052%=      5-min Rain = 0
KCA1 160214Z 14010KT 30/19 A299 RMK A01 T02990191  RH  053%=      5-min Rain = 0
KCA1 160215Z 14011KT 30/19 A299 RMK A01 T02980191  RH  053%=      5-min Rain = 0
KCA1 160216Z 14010KT 30/19 A299 RMK A01 T02980191  RH  053%=      5-min Rain = 0
KCA1 160217Z 14010KT 30/19 A299 RMK A01 T02980191  RH  053%=      5-min Rain = 0
KCA1 160218Z 14011KT 30/19 A299 RMK A01 T02970191  RH  053%=      5-min Rain = 0
KCA1 160219Z 14011KT 30/19 A299 RMK A01 T02970191  RH  053%=      5-min Rain = 0
KCA1 160220Z 13012KT 30/19 A299 RMK A01 T02970192  RH  053%=      5-min Rain = 0
KCA1 160221Z 14011KT 30/19 A299 RMK A01 T02960191  RH  053%=      5-min Rain = 0
KCA1 160222Z 14010KT 30/19 A299 RMK A01 T02960191  RH  053%=      5-min Rain = 0
KCA1 160223Z 14010KT 30/19 A299 RMK A01 T02960192  RH  053%=      5-min Rain = 0
KCA1 160224Z 14010KT 30/19 A299 RMK A01 T02950191  RH  054%=      5-min Rain = 0
KCA1 160225Z 14011KT 30/19 A299 RMK A01 T02950191  RH  054%=      5-min Rain = 0
KCA1 160226Z 14010KT 30/19 A299 RMK A01 T02950191  RH  054%=      5-min Rain = 0
KCA1 160227Z 14011G16KT 30/19 A299 RMK A01 T02950191  RH  054%=      5-min Rain = 0
KCA1 160228Z 14011KT 29/19 A299 RMK A01 T02940191  RH  054%=      5-min Rain = 0
KCA1 160229Z 14011KT 29/19 A299 RMK A01 T02940191  RH  054%=      5-min Rain = 0
KCA1 160230Z 14011KT 29/19 A299 RMK A01 T02940191  RH  054%=      5-min Rain = 0
KCA1 160231Z 14012KT 29/19 A299 RMK A01 T02940191  RH  054%=      5-min Rain = 0
KCA1 160232Z 14010KT 29/19 A299 RMK A01 T02940190  RH  054%=      5-min Rain = 0
KCA1 160233Z 14011G16KT 29/19 A299 RMK A01 T02930190  RH  054%=      5-min Rain = 0
KCA1 160234Z 14013KT 29/19 A299 RMK A01 T02930190  RH  054%=      5-min Rain = 0
KCA1 160235Z 14011KT 29/19 A299 RMK A01 T02930190  RH  054%=      5-min Rain = 0
KCA1 160236Z 14011KT 29/19 A299 RMK A01 T02930190  RH  054%=      5-min Rain = 0
KCA1 160237Z 14010KT 29/19 A299 RMK A01 T02930190  RH  054%=      5-min Rain = 0
KCA1 160238Z 14010KT 29/19 A299 RMK A01 T02930190  RH  054%=      5-min Rain = 0
KCA1 160239Z 14011KT 29/19 A299 RMK A01 T02920190  RH  054%=      5-min Rain = 0
KCA1 160240Z 14010KT 29/19 A2991 RMK A01 T02910190  RH  054%=      5-min Rain = 0
KCA1 160241Z 14010KT 29/19 A2991 RMK A01 T02910190  RH  054%=      5-min Rain = 0
KCA1 160242Z 14012KT 29/19 A299 RMK A01 T02910189  RH  054%=      5-min Rain = 0
KCA1 160243Z 14011KT 29/19 A2991 RMK A01 T02910189  RH  054%=      5-min Rain = 0
KCA1 160244Z 14011KT 29/19 A2991 RMK A01 T02910189  RH  054%=      5-min Rain = 0
KCA1 160245Z 14012KT 29/19 A2991 RMK A01 T02910189  RH  054%=      5-min Rain = 0
KCA1 160246Z 14012KT 29/19 A2991 RMK A01 T02910189  RH  054%=      5-min Rain = 0
KCA1 160247Z 14011KT 29/19 A2991 RMK A01 T02910189  RH  054%=      5-min Rain = 0
KCA1 160248Z 14009KT 29/19 A2991 RMK A01 T02910189  RH  054%=      5-min Rain = 0
KCA1 160249Z 14008KT 29/19 A2991 RMK A01 T02900189  RH  054%=      5-min Rain = 0
KCA1 160250Z 14012KT 29/19 A2991 RMK A01 T02890189  RH  055%=      5-min Rain = 0
KCA1 160251Z 15011KT 29/19 A2991 RMK A01 T02890189  RH  055%=      5-min Rain = 0
KCA1 160252Z 14012KT 29/19 A2991 RMK A01 T02890189  RH  055%=      5-min Rain = 0
KCA1 160253Z 14011KT 29/19 A2991 RMK A01 T02890188  RH  054%=      5-min Rain = 0
KCA1 160254Z 13010KT 29/19 A2991 RMK A01 T02890188  RH  054%=      5-min Rain = 0
KCA1 160255Z 14011KT 29/19 A2991 RMK A01 T02890188  RH  054%=      5-min Rain = 0
KCA1 160256Z 15012KT 29/19 A2991 RMK A01 T02890188  RH  055%=      5-min Rain = 0
KCA1 160257Z 15014KT 29/19 A2991 RMK A01 T02880188  RH  055%=      5-min Rain = 0
KCA1 160258Z 15012KT 29/19 A2991 RMK A01 T02880188  RH  055%=      5-min Rain = 0
KCA1 160259Z 14013KT 29/19 A2991 RMK A01 T02880187  RH  055%=      5-min Rain = 0
KCA1 160300Z 14014KT 29/19 A2991 RMK A01 T02880187  RH  054%=      5-min Rain = 0
KCA1 160301Z 14012KT 29/19 A2991 RMK A01 T02890187  RH  054%=      5-min Rain = 0
KCA1 160302Z 14014KT 29/19 A2991 RMK A01 T02890186  RH  054%=      5-min Rain = 0
KCA1 160303Z 14013KT 29/19 A2991 RMK A01 T02900187  RH  054%=      5-min Rain = 0
KCA1 160304Z 14010KT 29/19 A2991 RMK A01 T02900187  RH  054%=      5-min Rain = 0
KCA1 160305Z 14010KT 29/19 A2991 RMK A01 T02890187  RH  054%=      5-min Rain = 0
KCA1 160306Z 14011KT 29/19 A2991 RMK A01 T02880187  RH  054%=      5-min Rain = 0
KCA1 160307Z 14012KT 29/19 A2991 RMK A01 T02880187  RH  055%=      5-min Rain = 0
KCA1 160308Z 14012KT 29/19 A2991 RMK A01 T02870187  RH  055%=      5-min Rain = 0
KCA1 160309Z 14012KT 29/19 A2991 RMK A01 T02870187  RH  055%=      5-min Rain = 0
KCA1 160310Z 14010KT 29/19 A2991 RMK A01 T02870187  RH  055%=      5-min Rain = 0
KCA1 160311Z 14012KT 29/19 A2992 RMK A01 T02870187  RH  055%=      5-min Rain = 0
KCA1 160312Z 14011KT 29/19 A2992 RMK A01 T02870187  RH  055%=      5-min Rain = 0
KCA1 160313Z 14012KT 29/19 A2992 RMK A01 T02860186  RH  055%=      5-min Rain = 0
KCA1 160314Z 14011KT 29/19 A2992 RMK A01 T02870186  RH  055%=      5-min Rain = 0
KCA1 160315Z 14011KT 29/19 A2992 RMK A01 T02870187  RH  055%=      5-min Rain = 0
KCA1 160316Z 14011KT 29/19 A2992 RMK A01 T02860186  RH  055%=      5-min Rain = 0
KCA1 160317Z 15010KT 29/19 A2992 RMK A01 T02860186  RH  055%=      5-min Rain = 0
KCA1 160318Z 14012KT 29/19 A2992 RMK A01 T02850186  RH  055%=      5-min Rain = 0
KCA1 160319Z 14012KT 29/19 A2992 RMK A01 T02850186  RH  055%=      5-min Rain = 0
KCA1 160320Z 14012KT 29/19 A2992 RMK A01 T02850186  RH  055%=      5-min Rain = 0
KCA1 160321Z 14013KT 29/19 A2992 RMK A01 T02850186  RH  055%=      5-min Rain = 0
KCA1 160322Z 14011KT 29/19 A2992 RMK A01 T02860186  RH  055%=      5-min Rain = 0
KCA1 160323Z 14010KT 29/19 A2992 RMK A01 T02850185  RH  055%=      5-min Rain = 0
KCA1 160324Z 15011KT 29/19 A2992 RMK A01 T02850185  RH  055%=      5-min Rain = 0
KCA1 160325Z 15013KT 28/19 A2991 RMK A01 T02840185  RH  055%=      5-min Rain = 0
KCA1 160326Z 15012KT 28/19 A2992 RMK A01 T02840185  RH  055%=      5-min Rain = 0
KCA1 160327Z 14011KT 28/19 A2992 RMK A01 T02840185  RH  055%=      5-min Rain = 0
KCA1 160328Z 15012KT 28/19 A2992 RMK A01 T02840185  RH  055%=      5-min Rain = 0
KCA1 160329Z 15012KT 28/19 A2992 RMK A01 T02840185  RH  055%=      5-min Rain = 0
KCA1 160330Z 15011KT 28/19 A2992 RMK A01 T02840185  RH  055%=      5-min Rain = 0
KCA1 160331Z 15010KT 28/19 A2992 RMK A01 T02830185  RH  055%=      5-min Rain = 0
KCA1 160332Z 15011KT 28/19 A2992 RMK A01 T02830185  RH  055%=      5-min Rain = 0
KCA1 160333Z 15012KT 28/18 A2992 RMK A01 T02820184  RH  055%=      5-min Rain = 0
KCA1 160334Z 15011KT 28/18 A2992 RMK A01 T02820184  RH  055%=      5-min Rain = 0
KCA1 160335Z 15011KT 28/18 A2992 RMK A01 T02830184  RH  055%=      5-min Rain = 0
KCA1 160336Z 15010KT 28/18 A2992 RMK A01 T02830184  RH  055%=      5-min Rain = 0
KCA1 160337Z 16011KT 28/18 A2992 RMK A01 T02820184  RH  055%=      5-min Rain = 0
KCA1 160338Z 15013KT 28/18 A2992 RMK A01 T02820184  RH  055%=      5-min Rain = 0
KCA1 160339Z 15014KT 28/18 A2992 RMK A01 T02830184  RH  055%=      5-min Rain = 0
KCA1 160340Z 16014KT 28/18 A2992 RMK A01 T02830184  RH  055%=      5-min Rain = 0
KCA1 160341Z 15013KT 28/18 A2992 RMK A01 T02830184  RH  055%=      5-min Rain = 0
KCA1 160342Z 16013KT 28/18 A2992 RMK A01 T02830184  RH  055%=      5-min Rain = 0
KCA1 160343Z 16015KT 28/18 A2992 RMK A01 T02830183  RH  055%=      5-min Rain = 0
KCA1 160344Z 16014KT 28/18 A2992 RMK A01 T02830183  RH  055%=      5-min Rain = 0
KCA1 160345Z 15014KT 28/18 A2992 RMK A01 T02830183  RH  055%=      5-min Rain = 0
KCA1 160346Z 16013KT 28/18 A2992 RMK A01 T02830184  RH  055%=      5-min Rain = 0
KCA1 160347Z 16013KT 28/18 A2992 RMK A01 T02830183  RH  055%=      5-min Rain = 0
KCA1 160348Z 16015KT 28/18 A2992 RMK A01 T02820183  RH  055%=      5-min Rain = 0
KCA1 160349Z 16013KT 28/18 A2992 RMK A01 T02820183  RH  055%=      5-min Rain = 0
KCA1 160350Z 16014KT 28/18 A2991 RMK A01 T02820183  RH  055%=      5-min Rain = 0
KCA1 160351Z 16015KT 28/18 A2992 RMK A01 T02820183  RH  055%=      5-min Rain = 0
KCA1 160352Z 16013KT 28/18 A2991 RMK A01 T02820183  RH  055%=      5-min Rain = 0
KCA1 160353Z 16015KT 28/18 A2992 RMK A01 T02820182  RH  055%=      5-min Rain = 0
KCA1 160354Z 16014KT 28/18 A2991 RMK A01 T02820183  RH  055%=      5-min Rain = 0
KCA1 160355Z 16015KT 28/18 A2992 RMK A01 T02820182  RH  055%=      5-min Rain = 0
KCA1 160356Z 16015KT 28/18 A2992 RMK A01 T02810182  RH  055%=      5-min Rain = 0
KCA1 160357Z 16013KT 28/18 A2992 RMK A01 T02810182  RH  055%=      5-min Rain = 0
KCA1 160358Z 16014KT 28/18 A2991 RMK A01 T02810182  RH  055%=      5-min Rain = 0
KCA1 160359Z 16014KT 28/18 A2992 RMK A01 T02810182  RH  055%=      5-min Rain = 0
KCA1 160400Z 16014G20KT 28/18 A2991 RMK A01 T02810182  RH  055%=      5-min Rain = 0
KCA1 160401Z 16018KT 28/18 A2991 RMK A01 T02800181  RH  055%=      5-min Rain = 0
KCA1 160402Z 16013G18KT 28/18 A2991 RMK A01 T02810181  RH  054%=      5-min Rain = 0
KCA1 160403Z 17015KT 28/18 A2991 RMK A01 T02810181  RH  054%=      5-min Rain = 0
KCA1 160404Z 16016KT 28/18 A2991 RMK A01 T02810180  RH  054%=      5-min Rain = 0
KCA1 160405Z 17013G18KT 28/18 A2991 RMK A01 T02810180  RH  054%=      5-min Rain = 0
KCA1 160406Z 16014G20KT 28/18 A2991 RMK A01 T02810180  RH  054%=      5-min Rain = 0
KCA1 160407Z 17016KT 28/18 A2991 RMK A01 T02810180  RH  054%=      5-min Rain = 0
KCA1 160408Z 17017G22KT 28/18 A2991 RMK A01 T02810180  RH  054%=      5-min Rain = 0
KCA1 160409Z 17015KT 28/18 A2991 RMK A01 T02810180  RH  054%=      5-min Rain = 0
KCA1 160410Z 17016G21KT 28/18 A2991 RMK A01 T02810179  RH  054%=      5-min Rain = 0
KCA1 160411Z 17017KT 28/18 A2992 RMK A01 T02810179  RH  054%=      5-min Rain = 0
KCA1 160412Z 17017KT 28/18 A2991 RMK A01 T02810179  RH  054%=      5-min Rain = 0
KCA1 160413Z 17016KT 28/18 A2991 RMK A01 T02810178  RH  054%=      5-min Rain = 0
KCA1 160414Z 17015KT 28/18 A2991 RMK A01 T02810179  RH  054%=      5-min Rain = 0
KCA1 160415Z 17016G21KT 28/18 A2991 RMK A01 T02810179  RH  054%=      5-min Rain = 0
KCA1 160416Z 17013KT 28/18 A2991 RMK A01 T02810179  RH  054%=      5-min Rain = 0
KCA1 160417Z 17014G20KT 28/18 A2991 RMK A01 T02810179  RH  054%=      5-min Rain = 0
KCA1 160418Z 17017KT 28/18 A2991 RMK A01 T02810178  RH  054%=      5-min Rain = 0
KCA1 160419Z 17014KT 28/18 A2991 RMK A01 T02810178  RH  054%=      5-min Rain = 0
KCA1 160420Z 17016KT 28/18 A2991 RMK A01 T02810178  RH  054%=      5-min Rain = 0
KCA1 160421Z 17018G24KT 28/18 A2991 RMK A01 T02810178  RH  053%=      5-min Rain = 0
KCA1 160422Z 17014KT 28/18 A2991 RMK A01 T02810177  RH  053%=      5-min Rain = 0
KCA1 160423Z 17014G19KT 28/18 A2991 RMK A01 T02810177  RH  053%=      5-min Rain = 0
KCA1 160424Z 17016G21KT 28/18 A2991 RMK A01 T02810178  RH  053%=      5-min Rain = 0
KCA1 160425Z 17017KT 28/18 A2992 RMK A01 T02810177  RH  053%=      5-min Rain = 0
KCA1 160426Z 17017KT 28/18 A2992 RMK A01 T02810177  RH  053%=      5-min Rain = 0
KCA1 160427Z 17015KT 28/18 A2992 RMK A01 T02810176  RH  053%=      5-min Rain = 0
KCA1 160428Z 17015KT 28/18 A2992 RMK A01 T02820176  RH  053%=      5-min Rain = 0
KCA1 160429Z 18015KT 28/18 A2992 RMK A01 T02820176  RH  053%=      5-min Rain = 0
KCA1 160430Z 17017KT 28/18 A2992 RMK A01 T02820176  RH  053%=      5-min Rain = 0
KCA1 160431Z 18018KT 28/18 A2992 RMK A01 T02820176  RH  053%=      5-min Rain = 0
KCA1 160432Z 18018KT 28/18 A2992 RMK A01 T02820175  RH  052%=      5-min Rain = 0
KCA1 160433Z 17017KT 28/18 A2992 RMK A01 T02820175  RH  052%=      5-min Rain = 0
KCA1 160434Z 17016G23KT 28/18 A2992 RMK A01 T02830175  RH  052%=      5-min Rain = 0
KCA1 160435Z 17015KT 28/18 A2992 RMK A01 T02820175  RH  052%=      5-min Rain = 0
KCA1 160436Z 18016G22KT 28/18 A2992 RMK A01 T02810175  RH  052%=      5-min Rain = 0
KCA1 160437Z 18014KT 28/18 A2992 RMK A01 T02810175  RH  053%=      5-min Rain = 0
KCA1 160438Z 18014KT 28/18 A2992 RMK A01 T02810175  RH  053%=      5-min Rain = 0
KCA1 160439Z 18014KT 28/18 A2992 RMK A01 T02800175  RH  053%=      5-min Rain = 0
KCA1 160440Z 18017KT 28/18 A2992 RMK A01 T02800175  RH  053%=      5-min Rain = 0
KCA1 160441Z 17015KT 28/18 A2992 RMK A01 T02800175  RH  053%=      5-min Rain = 0
KCA1 160442Z 18015KT 28/18 A2992 RMK A01 T02800175  RH  053%=      5-min Rain = 0
KCA1 160443Z 18013KT 28/18 A2992 RMK A01 T02790175  RH  053%=      5-min Rain = 0
KCA1 160444Z 18014G20KT 28/18 A2992 RMK A01 T02790175  RH  053%=      5-min Rain = 0
KCA1 160445Z 18012KT 28/18 A2992 RMK A01 T02790175  RH  053%=      5-min Rain = 0
KCA1 160446Z 18015KT 28/18 A2992 RMK A01 T02780175  RH  053%=      5-min Rain = 0
KCA1 160447Z 18015KT 28/18 A2992 RMK A01 T02780175  RH  054%=      5-min Rain = 0
KCA1 160448Z 18013KT 28/18 A2992 RMK A01 T02780175  RH  054%=      5-min Rain = 0
KCA1 160449Z 18014KT 28/18 A2992 RMK A01 T02770175  RH  054%=      5-min Rain = 0
KCA1 160450Z 18012KT 28/18 A2992 RMK A01 T02770175  RH  054%=      5-min Rain = 0
KCA1 160451Z 18013KT 28/18 A2992 RMK A01 T02770175  RH  054%=      5-min Rain = 0
KCA1 160452Z 18015KT 28/18 A2992 RMK A01 T02760175  RH  054%=      5-min Rain = 0
KCA1 160453Z 18012KT 28/18 A2992 RMK A01 T02770175  RH  054%=      5-min Rain = 0
KCA1 160454Z 18012G17KT 28/18 A2992 RMK A01 T02760175  RH  054%=      5-min Rain = 0
KCA1 160455Z 18012KT 28/18 A2992 RMK A01 T02760175  RH  054%=      5-min Rain = 0
KCA1 160456Z 18012KT 28/18 A2992 RMK A01 T02750175  RH  054%=      5-min Rain = 0
KCA1 160457Z 18012KT 27/18 A2992 RMK A01 T02740175  RH  055%=      5-min Rain = 0
KCA1 160458Z 18011G16KT 27/18 A2992 RMK A01 T02740175  RH  055%=      5-min Rain = 0
KCA1 160459Z 18012KT 27/17 A2992 RMK A01 T02740174  RH  055%=      5-min Rain = 0

Page generated in 0.1428 seconds.